Time,TemperatureF,DewpointF,PressureIn,WindDirection,WindDirectionDegrees,WindSpeedMPH,WindSpeedGustMPH,Humidity,HourlyPrecipIn,Conditions,Clouds,dailyrainin,SoftwareType,DateUTC
2013-06-18 00:00:00,77.2,68.3,29.86,South,186,0.0,1.0,74,0.00,,SKC,0.00,VWS V14.01,2013-06-18 05:00:00,
2013-06-18 00:01:00,77.1,68.2,29.86,South,186,1.0,1.0,74,0.00,,SKC,0.00,VWS V14.01,2013-06-18 05:01:00,
2013-06-18 00:02:00,77.1,68.2,29.86,South,186,0.0,0.0,74,0.00,,SKC,0.00,VWS V14.01,2013-06-18 05:02:00,
2013-06-18 00:03:00,76.9,68.4,29.86,South,186,1.0,1.0,75,0.00,,SKC,0.00,VWS V14.01,2013-06-18 05:03:00,
2013-06-18 00:04:00,76.8,68.3,29.86,South,186,2.0,2.0,75,0.00,,SKC,0.00,VWS V14.01,2013-06-18 05:04:00,
2013-06-18 00:05:00,76.7,68.2,29.86,South,186,0.0,3.0,75,0.00,,SKC,0.00,VWS V14.01,2013-06-18 05:05:00,
2013-06-18 00:06:00,76.6,68.1,29.86,South,186,1.0,2.0,75,0.00,,SKC,0.00,VWS V14.01,2013-06-18 05:06:00,
2013-06-18 00:07:00,76.6,68.1,29.86,South,186,0.0,1.0,75,0.00,,SKC,0.00,VWS V14.01,2013-06-18 05:07:00,
2013-06-18 00:08:00,76.4,67.9,29.87,South,186,0.0,0.0,75,0.00,,SKC,0.00,VWS V14.01,2013-06-18 05:08:00,
2013-06-18 00:09:00,76.3,68.2,29.87,South,186,0.0,0.0,76,0.00,,SKC,0.00,VWS V14.01,2013-06-18 05:09:00,
2013-06-18 00:10:00,76.2,68.1,29.87,South,186,0.0,0.0,76,0.00,,SKC,0.00,VWS V14.01,2013-06-18 05:10:00,
2013-06-18 00:11:00,76.1,68.0,29.87,South,186,1.0,1.0,76,0.00,,SKC,0.00,VWS V14.01,2013-06-18 05:11:00,
2013-06-18 00:12:00,76.2,68.1,29.87,South,186,0.0,0.0,76,0.00,,SKC,0.00,VWS V14.01,2013-06-18 05:12:00,
2013-06-18 00:13:00,76.0,67.9,29.87,South,186,0.0,0.0,76,0.00,,SKC,0.00,VWS V14.01,2013-06-18 05:13:00,
2013-06-18 00:14:00,76.0,67.9,29.87,South,186,0.0,3.0,76,0.00,,SKC,0.00,VWS V14.01,2013-06-18 05:14:00,
2013-06-18 00:15:00,76.0,67.9,29.87,South,186,3.0,3.0,76,0.00,,SKC,0.00,VWS V14.01,2013-06-18 05:15:00,
2013-06-18 00:16:00,76.1,68.0,29.87,South,186,4.0,4.0,76,0.00,,SKC,0.00,VWS V14.01,2013-06-18 05:16:00,
2013-06-18 00:17:00,76.0,67.9,29.87,South,186,3.0,3.0,76,0.00,,SKC,0.00,VWS V14.01,2013-06-18 05:17:00,
2013-06-18 00:18:00,76.2,68.5,29.87,South,186,3.0,6.0,77,0.00,,SKC,0.00,VWS V14.01,2013-06-18 05:18:00,
2013-06-18 00:19:00,76.2,68.5,29.87,South,187,4.0,5.0,77,0.00,,SKC,0.00,VWS V14.01,2013-06-18 05:19:00,
2013-06-18 00:20:00,76.2,68.5,29.87,South,187,2.0,7.0,77,0.00,,SKC,0.00,VWS V14.01,2013-06-18 05:20:00,
2013-06-18 00:21:00,76.3,68.6,29.87,South,188,6.0,6.0,77,0.00,,SKC,0.00,VWS V14.01,2013-06-18 05:21:00,
2013-06-18 00:22:00,76.3,68.6,29.87,South,188,6.0,6.0,77,0.00,,SKC,0.00,VWS V14.01,2013-06-18 05:22:00,
2013-06-18 00:23:00,76.4,68.7,29.87,SSW,197,6.0,9.0,77,0.00,,SKC,0.00,VWS V14.01,2013-06-18 05:23:00,
2013-06-18 00:24:00,76.6,68.9,29.87,SSW,196,4.0,11.0,77,0.00,,SKC,0.00,VWS V14.01,2013-06-18 05:24:00,
2013-06-18 00:25:00,76.6,68.9,29.87,SSW,194,4.0,5.0,77,0.00,,SKC,0.00,VWS V14.01,2013-06-18 05:25:00,
2013-06-18 00:26:00,76.7,68.9,29.87,South,190,5.0,9.0,77,0.00,,SKC,0.00,VWS V14.01,2013-06-18 05:26:00,
2013-06-18 00:27:00,76.7,68.9,29.87,SSW,194,6.0,9.0,77,0.00,,SKC,0.00,VWS V14.01,2013-06-18 05:27:00,
2013-06-18 00:28:00,76.9,69.2,29.87,South,180,3.0,7.0,77,0.00,,SKC,0.00,VWS V14.01,2013-06-18 05:28:00,
2013-06-18 00:29:00,77.0,69.2,29.87,South,182,4.0,6.0,77,0.00,,SKC,0.00,VWS V14.01,2013-06-18 05:29:00,
2013-06-18 00:30:00,77.0,69.2,29.87,South,184,3.0,6.0,77,0.00,,SKC,0.00,VWS V14.01,2013-06-18 05:30:00,
2013-06-18 00:31:00,77.1,69.3,29.87,South,190,6.0,6.0,77,0.00,,SKC,0.00,VWS V14.01,2013-06-18 05:31:00,
2013-06-18 00:32:00,77.1,69.3,29.87,South,190,1.0,6.0,77,0.00,,SKC,0.00,VWS V14.01,2013-06-18 05:32:00,
2013-06-18 00:33:00,77.1,69.3,29.87,South,183,5.0,5.0,77,0.00,,SKC,0.00,VWS V14.01,2013-06-18 05:33:00,
2013-06-18 00:34:00,77.2,69.4,29.87,South,182,4.0,5.0,77,0.00,,SKC,0.00,VWS V14.01,2013-06-18 05:34:00,
2013-06-18 00:35:00,77.2,69.4,29.87,South,188,3.0,7.0,77,0.00,,SKC,0.00,VWS V14.01,2013-06-18 05:35:00,
2013-06-18 00:36:00,77.3,69.5,29.88,South,188,3.0,5.0,77,0.00,,SKC,0.00,VWS V14.01,2013-06-18 05:36:00,
2013-06-18 00:37:00,77.2,69.4,29.88,South,187,3.0,5.0,77,0.00,,SKC,0.00,VWS V14.01,2013-06-18 05:37:00,
2013-06-18 00:38:00,77.3,69.5,29.88,South,188,5.0,5.0,77,0.00,,SKC,0.00,VWS V14.01,2013-06-18 05:38:00,
2013-06-18 00:39:00,77.3,69.5,29.88,South,172,3.0,6.0,77,0.00,,SKC,0.00,VWS V14.01,2013-06-18 05:39:00,
2013-06-18 00:40:00,77.3,69.9,29.88,SSW,196,6.0,7.0,78,0.00,,SKC,0.00,VWS V14.01,2013-06-18 05:40:00,
2013-06-18 00:41:00,77.3,69.9,29.87,SSW,194,7.0,7.0,78,0.00,,SKC,0.00,VWS V14.01,2013-06-18 05:41:00,
2013-06-18 00:42:00,77.3,69.9,29.87,SSW,196,4.0,6.0,78,0.00,,SKC,0.00,VWS V14.01,2013-06-18 05:42:00,
2013-06-18 00:43:00,77.3,69.9,29.87,South,185,3.0,4.0,78,0.00,,SKC,0.00,VWS V14.01,2013-06-18 05:43:00,
2013-06-18 00:44:00,77.3,69.9,29.87,South,186,4.0,6.0,78,0.00,,SKC,0.00,VWS V14.01,2013-06-18 05:44:00,
2013-06-18 00:45:00,77.3,69.9,29.87,South,184,3.0,5.0,78,0.00,,SKC,0.00,VWS V14.01,2013-06-18 05:45:00,
2013-06-18 00:46:00,77.3,69.9,29.87,South,171,2.0,5.0,78,0.00,,SKC,0.00,VWS V14.01,2013-06-18 05:46:00,
2013-06-18 00:47:00,77.3,69.9,29.87,South,171,4.0,5.0,78,0.00,,SKC,0.00,VWS V14.01,2013-06-18 05:47:00,
2013-06-18 00:48:00,77.2,69.8,29.87,South,171,5.0,5.0,78,0.00,,SKC,0.00,VWS V14.01,2013-06-18 05:48:00,
2013-06-18 00:49:00,77.2,69.8,29.87,South,172,3.0,5.0,78,0.00,,SKC,0.00,VWS V14.01,2013-06-18 05:49:00,
2013-06-18 00:50:00,77.2,69.8,29.87,South,172,0.0,3.0,78,0.00,,SKC,0.00,VWS V14.01,2013-06-18 05:50:00,
2013-06-18 00:51:00,77.1,69.7,29.87,South,172,0.0,1.0,78,0.00,,SKC,0.00,VWS V14.01,2013-06-18 05:51:00,
2013-06-18 00:52:00,77.1,69.7,29.87,South,172,0.0,1.0,78,0.00,,SKC,0.00,VWS V14.01,2013-06-18 05:52:00,
2013-06-18 00:53:00,77.1,69.7,29.87,South,172,0.0,2.0,78,0.00,,SKC,0.00,VWS V14.01,2013-06-18 05:53:00,
2013-06-18 00:54:00,77.0,69.6,29.87,South,172,1.0,3.0,78,0.00,,SKC,0.00,VWS V14.01,2013-06-18 05:54:00,
2013-06-18 00:55:00,77.0,69.6,29.87,South,172,4.0,4.0,78,0.00,,SKC,0.00,VWS V14.01,2013-06-18 05:55:00,
2013-06-18 00:56:00,77.0,69.6,29.87,South,172,1.0,4.0,78,0.00,,SKC,0.00,VWS V14.01,2013-06-18 05:56:00,
2013-06-18 00:57:00,77.0,69.6,29.87,South,172,1.0,4.0,78,0.00,,SKC,0.00,VWS V14.01,2013-06-18 05:57:00,
2013-06-18 00:58:00,76.9,69.5,29.87,South,172,3.0,3.0,78,0.00,,SKC,0.00,VWS V14.01,2013-06-18 05:58:00,
2013-06-18 00:59:00,76.8,69.4,29.87,South,172,2.0,3.0,78,0.00,,SKC,0.00,VWS V14.01,2013-06-18 05:59:00,
2013-06-18 01:00:00,76.8,69.4,29.87,South,172,1.0,3.0,78,0.00,,SKC,0.00,VWS V14.01,2013-06-18 06:00:00,
2013-06-18 01:01:00,76.7,69.3,29.87,South,172,2.0,2.0,78,0.00,,SKC,0.00,VWS V14.01,2013-06-18 06:01:00,
2013-06-18 01:02:00,76.7,69.3,29.87,South,172,1.0,2.0,78,0.00,,SKC,0.00,VWS V14.01,2013-06-18 06:02:00,
2013-06-18 01:03:00,76.7,69.7,29.87,South,172,1.0,3.0,79,0.00,,SKC,0.00,VWS V14.01,2013-06-18 06:03:00,
2013-06-18 01:04:00,76.6,69.6,29.87,South,173,2.0,3.0,79,0.00,,SKC,0.00,VWS V14.01,2013-06-18 06:04:00,
2013-06-18 01:05:00,76.6,69.6,29.87,South,173,2.0,2.0,79,0.00,,SKC,0.00,VWS V14.01,2013-06-18 06:05:00,
2013-06-18 01:06:00,76.5,69.5,29.87,South,172,2.0,3.0,79,0.00,,SKC,0.00,VWS V14.01,2013-06-18 06:06:00,
2013-06-18 01:07:00,76.5,69.5,29.87,South,173,2.0,3.0,79,0.00,,SKC,0.00,VWS V14.01,2013-06-18 06:07:00,
2013-06-18 01:08:00,76.5,69.5,29.87,South,172,2.0,3.0,79,0.00,,SKC,0.00,VWS V14.01,2013-06-18 06:08:00,
2013-06-18 01:09:00,76.5,69.5,29.87,South,173,1.0,3.0,79,0.00,,SKC,0.00,VWS V14.01,2013-06-18 06:09:00,
2013-06-18 01:10:00,76.4,69.4,29.87,South,173,0.0,1.0,79,0.00,,SKC,0.00,VWS V14.01,2013-06-18 06:10:00,
2013-06-18 01:11:00,76.4,69.4,29.87,South,173,0.0,4.0,79,0.00,,SKC,0.00,VWS V14.01,2013-06-18 06:11:00,
2013-06-18 01:12:00,76.4,69.4,29.87,South,173,1.0,4.0,79,0.00,,SKC,0.00,VWS V14.01,2013-06-18 06:12:00,
2013-06-18 01:13:00,76.4,69.8,29.87,South,187,2.0,6.0,80,0.00,,SKC,0.00,VWS V14.01,2013-06-18 06:13:00,
2013-06-18 01:14:00,76.4,69.8,29.87,South,182,0.0,4.0,80,0.00,,SKC,0.00,VWS V14.01,2013-06-18 06:14:00,
2013-06-18 01:15:00,76.4,69.8,29.87,South,182,2.0,5.0,80,0.00,,SKC,0.00,VWS V14.01,2013-06-18 06:15:00,
2013-06-18 01:16:00,76.4,69.8,29.87,South,178,5.0,5.0,80,0.00,,SKC,0.00,VWS V14.01,2013-06-18 06:16:00,
2013-06-18 01:17:00,76.4,69.8,29.87,South,178,4.0,4.0,80,0.00,,SKC,0.00,VWS V14.01,2013-06-18 06:17:00,
2013-06-18 01:18:00,76.5,69.9,29.86,South,173,2.0,7.0,80,0.00,,SKC,0.00,VWS V14.01,2013-06-18 06:18:00,
2013-06-18 01:19:00,76.5,69.9,29.86,SSW,195,6.0,8.0,80,0.00,,SKC,0.00,VWS V14.01,2013-06-18 06:19:00,
2013-06-18 01:20:00,76.5,69.9,29.86,South,187,4.0,6.0,80,0.00,,SKC,0.00,VWS V14.01,2013-06-18 06:20:00,
2013-06-18 01:21:00,76.5,69.9,29.86,South,188,2.0,4.0,80,0.00,,SKC,0.00,VWS V14.01,2013-06-18 06:21:00,
2013-06-18 01:22:00,76.5,69.9,29.86,South,188,2.0,4.0,80,0.00,,SKC,0.00,VWS V14.01,2013-06-18 06:22:00,
2013-06-18 01:23:00,76.5,69.9,29.86,South,180,4.0,5.0,80,0.00,,SKC,0.00,VWS V14.01,2013-06-18 06:23:00,
2013-06-18 01:24:00,76.5,69.9,29.86,South,180,6.0,10.0,80,0.00,,SKC,0.00,VWS V14.01,2013-06-18 06:24:00,
2013-06-18 01:25:00,76.6,70.0,29.86,South,189,4.0,8.0,80,0.00,,SKC,0.00,VWS V14.01,2013-06-18 06:25:00,
2013-06-18 01:26:00,76.6,70.0,29.86,South,184,7.0,7.0,80,0.00,,SKC,0.00,VWS V14.01,2013-06-18 06:26:00,
2013-06-18 01:27:00,76.5,69.9,29.86,South,182,5.0,6.0,80,0.00,,SKC,0.00,VWS V14.01,2013-06-18 06:27:00,
2013-06-18 01:28:00,76.6,70.0,29.86,South,173,3.0,6.0,80,0.00,,SKC,0.00,VWS V14.01,2013-06-18 06:28:00,
2013-06-18 01:29:00,76.6,70.0,29.86,South,175,2.0,4.0,80,0.00,,SKC,0.00,VWS V14.01,2013-06-18 06:29:00,
2013-06-18 01:30:00,76.5,69.9,29.86,South,175,3.0,5.0,80,0.00,,SKC,0.00,VWS V14.01,2013-06-18 06:30:00,
2013-06-18 01:31:00,76.5,69.9,29.86,South,175,2.0,4.0,80,0.00,,SKC,0.00,VWS V14.01,2013-06-18 06:31:00,
2013-06-18 01:32:00,76.5,69.9,29.86,South,175,2.0,4.0,80,0.00,,SKC,0.00,VWS V14.01,2013-06-18 06:32:00,
2013-06-18 01:33:00,76.5,69.9,29.86,South,186,6.0,7.0,80,0.00,,SKC,0.00,VWS V14.01,2013-06-18 06:33:00,
2013-06-18 01:34:00,76.5,70.2,29.87,South,184,2.0,6.0,81,0.00,,SKC,0.00,VWS V14.01,2013-06-18 06:34:00,
2013-06-18 01:35:00,76.4,70.1,29.87,South,185,3.0,4.0,81,0.00,,SKC,0.00,VWS V14.01,2013-06-18 06:35:00,
2013-06-18 01:36:00,76.4,70.1,29.87,South,172,3.0,5.0,81,0.00,,SKC,0.00,VWS V14.01,2013-06-18 06:36:00,
2013-06-18 01:37:00,76.4,70.1,29.87,South,172,3.0,5.0,81,0.00,,SKC,0.00,VWS V14.01,2013-06-18 06:37:00,
2013-06-18 01:38:00,76.4,70.1,29.87,South,187,2.0,6.0,81,0.00,,SKC,0.00,VWS V14.01,2013-06-18 06:38:00,
2013-06-18 01:39:00,76.4,70.1,29.87,South,187,3.0,4.0,81,0.00,,SKC,0.00,VWS V14.01,2013-06-18 06:39:00,
2013-06-18 01:40:00,76.4,70.1,29.87,South,187,5.0,5.0,81,0.00,,SKC,0.00,VWS V14.01,2013-06-18 06:40:00,
2013-06-18 01:41:00,76.4,70.1,29.87,South,187,3.0,5.0,81,0.00,,SKC,0.00,VWS V14.01,2013-06-18 06:41:00,
2013-06-18 01:42:00,76.4,70.1,29.87,South,187,3.0,5.0,81,0.00,,SKC,0.00,VWS V14.01,2013-06-18 06:42:00,
2013-06-18 01:43:00,76.4,70.1,29.87,South,188,1.0,5.0,81,0.00,,SKC,0.00,VWS V14.01,2013-06-18 06:43:00,
2013-06-18 01:44:00,76.4,70.1,29.87,South,188,2.0,4.0,81,0.00,,SKC,0.00,VWS V14.01,2013-06-18 06:44:00,
2013-06-18 01:45:00,76.4,70.5,29.87,South,188,3.0,4.0,82,0.00,,SKC,0.00,VWS V14.01,2013-06-18 06:45:00,
2013-06-18 01:46:00,76.4,70.5,29.87,South,188,3.0,3.0,82,0.00,,SKC,0.00,VWS V14.01,2013-06-18 06:46:00,
2013-06-18 01:47:00,76.4,70.5,29.87,South,188,3.0,3.0,82,0.00,,SKC,0.00,VWS V14.01,2013-06-18 06:47:00,
2013-06-18 01:48:00,76.4,70.5,29.87,South,188,0.0,4.0,82,0.00,,SKC,0.00,VWS V14.01,2013-06-18 06:48:00,
2013-06-18 01:49:00,76.4,70.5,29.87,South,188,1.0,2.0,82,0.00,,SKC,0.00,VWS V14.01,2013-06-18 06:49:00,
2013-06-18 01:50:00,76.4,70.5,29.87,South,188,3.0,3.0,82,0.00,,SKC,0.00,VWS V14.01,2013-06-18 06:50:00,
2013-06-18 01:51:00,76.4,70.5,29.87,South,188,0.0,5.0,82,0.00,,SKC,0.00,VWS V14.01,2013-06-18 06:51:00,
2013-06-18 01:52:00,76.4,70.5,29.87,South,188,0.0,5.0,82,0.00,,SKC,0.00,VWS V14.01,2013-06-18 06:52:00,
2013-06-18 01:53:00,76.4,70.5,29.87,South,188,0.0,2.0,82,0.00,,SKC,0.00,VWS V14.01,2013-06-18 06:53:00,
2013-06-18 01:54:00,76.4,70.5,29.87,South,188,0.0,0.0,82,0.00,,SKC,0.00,VWS V14.01,2013-06-18 06:54:00,
2013-06-18 01:55:00,76.4,70.5,29.88,South,188,0.0,0.0,82,0.00,,SKC,0.00,VWS V14.01,2013-06-18 06:55:00,
2013-06-18 01:56:00,76.4,70.5,29.87,South,188,0.0,0.0,82,0.00,,SKC,0.00,VWS V14.01,2013-06-18 06:56:00,
2013-06-18 01:57:00,76.4,70.5,29.87,South,188,0.0,0.0,82,0.00,,SKC,0.00,VWS V14.01,2013-06-18 06:57:00,
2013-06-18 01:58:00,76.4,70.5,29.87,South,188,0.0,0.0,82,0.00,,SKC,0.00,VWS V14.01,2013-06-18 06:58:00,
2013-06-18 01:59:00,76.4,70.5,29.87,South,188,0.0,0.0,82,0.00,,SKC,0.00,VWS V14.01,2013-06-18 06:59:00,
2013-06-18 02:00:00,76.3,70.4,29.87,South,188,0.0,0.0,82,0.00,,SKC,0.00,VWS V14.01,2013-06-18 07:00:00,
2013-06-18 02:01:00,76.3,70.4,29.87,South,188,0.0,0.0,82,0.00,,SKC,0.00,VWS V14.01,2013-06-18 07:01:00,
2013-06-18 02:02:00,76.3,70.4,29.87,South,188,0.0,0.0,82,0.00,,SKC,0.00,VWS V14.01,2013-06-18 07:02:00,
2013-06-18 02:03:00,76.3,70.4,29.87,South,188,0.0,1.0,82,0.00,,SKC,0.00,VWS V14.01,2013-06-18 07:03:00,
2013-06-18 02:04:00,76.3,70.4,29.87,South,188,0.0,0.0,82,0.00,,SKC,0.00,VWS V14.01,2013-06-18 07:04:00,
2013-06-18 02:05:00,76.3,70.4,29.87,South,188,0.0,0.0,82,0.00,,SKC,0.00,VWS V14.01,2013-06-18 07:05:00,
2013-06-18 02:06:00,76.3,70.4,29.87,South,188,0.0,0.0,82,0.00,,SKC,0.00,VWS V14.01,2013-06-18 07:06:00,
2013-06-18 02:07:00,76.3,70.4,29.87,South,188,0.0,0.0,82,0.00,,SKC,0.00,VWS V14.01,2013-06-18 07:07:00,
2013-06-18 02:08:00,76.2,70.3,29.87,South,188,0.0,0.0,82,0.00,,SKC,0.00,VWS V14.01,2013-06-18 07:08:00,
2013-06-18 02:09:00,76.2,70.3,29.87,South,188,0.0,0.0,82,0.00,,SKC,0.00,VWS V14.01,2013-06-18 07:09:00,
2013-06-18 02:10:00,76.2,70.3,29.87,South,188,0.0,0.0,82,0.00,,SKC,0.00,VWS V14.01,2013-06-18 07:10:00,
2013-06-18 02:11:00,76.2,70.3,29.87,South,188,0.0,0.0,82,0.00,,SKC,0.00,VWS V14.01,2013-06-18 07:11:00,
2013-06-18 02:12:00,76.2,70.3,29.87,South,188,0.0,0.0,82,0.00,,SKC,0.00,VWS V14.01,2013-06-18 07:12:00,
2013-06-18 02:13:00,76.1,70.2,29.87,South,188,0.0,0.0,82,0.00,,SKC,0.00,VWS V14.01,2013-06-18 07:13:00,
2013-06-18 02:14:00,76.1,70.2,29.87,South,188,0.0,0.0,82,0.00,,SKC,0.00,VWS V14.01,2013-06-18 07:14:00,
2013-06-18 02:15:00,76.0,70.1,29.87,South,188,0.0,0.0,82,0.00,,SKC,0.00,VWS V14.01,2013-06-18 07:15:00,
2013-06-18 02:16:00,76.0,70.1,29.87,South,188,0.0,0.0,82,0.00,,SKC,0.00,VWS V14.01,2013-06-18 07:16:00,
2013-06-18 02:17:00,76.0,70.1,29.87,South,188,0.0,0.0,82,0.00,,SKC,0.00,VWS V14.01,2013-06-18 07:17:00,
2013-06-18 02:18:00,75.9,70.0,29.86,South,188,0.0,0.0,82,0.00,,SKC,0.00,VWS V14.01,2013-06-18 07:18:00,
2013-06-18 02:19:00,75.9,70.0,29.86,South,188,0.0,0.0,82,0.00,,SKC,0.00,VWS V14.01,2013-06-18 07:19:00,
2013-06-18 02:20:00,75.8,69.9,29.86,South,188,0.0,0.0,82,0.00,,SKC,0.00,VWS V14.01,2013-06-18 07:20:00,
2013-06-18 02:21:00,75.8,69.9,29.86,South,188,0.0,0.0,82,0.00,,SKC,0.00,VWS V14.01,2013-06-18 07:21:00,
2013-06-18 02:22:00,75.8,69.9,29.86,South,188,0.0,0.0,82,0.00,,SKC,0.00,VWS V14.01,2013-06-18 07:22:00,
2013-06-18 02:23:00,75.8,69.9,29.86,South,188,0.0,0.0,82,0.00,,SKC,0.00,VWS V14.01,2013-06-18 07:23:00,
2013-06-18 02:24:00,75.7,69.8,29.86,South,188,0.0,0.0,82,0.00,,SKC,0.00,VWS V14.01,2013-06-18 07:24:00,
2013-06-18 02:25:00,75.7,70.2,29.86,South,188,0.0,0.0,83,0.00,,SKC,0.00,VWS V14.01,2013-06-18 07:25:00,
2013-06-18 02:26:00,75.6,70.1,29.87,South,188,0.0,0.0,83,0.00,,SKC,0.00,VWS V14.01,2013-06-18 07:26:00,
2013-06-18 02:27:00,75.7,70.2,29.87,South,188,0.0,0.0,83,0.00,,SKC,0.00,VWS V14.01,2013-06-18 07:27:00,
2013-06-18 02:28:00,75.6,70.1,29.87,South,188,0.0,0.0,83,0.00,,SKC,0.00,VWS V14.01,2013-06-18 07:28:00,
2013-06-18 02:29:00,75.6,70.1,29.87,South,188,0.0,1.0,83,0.00,,SKC,0.00,VWS V14.01,2013-06-18 07:29:00,
2013-06-18 02:30:00,75.6,70.1,29.87,South,188,0.0,0.0,83,0.00,,SKC,0.00,VWS V14.01,2013-06-18 07:30:00,
2013-06-18 02:31:00,75.6,70.1,29.87,South,188,0.0,0.0,83,0.00,,SKC,0.00,VWS V14.01,2013-06-18 07:31:00,
2013-06-18 02:32:00,75.6,70.1,29.87,South,188,0.0,0.0,83,0.00,,SKC,0.00,VWS V14.01,2013-06-18 07:32:00,
2013-06-18 02:33:00,75.6,70.1,29.87,South,188,0.0,0.0,83,0.00,,SKC,0.00,VWS V14.01,2013-06-18 07:33:00,
2013-06-18 02:34:00,75.6,70.1,29.87,South,188,0.0,0.0,83,0.00,,SKC,0.00,VWS V14.01,2013-06-18 07:34:00,
2013-06-18 02:35:00,75.6,70.4,29.87,South,188,0.0,0.0,84,0.00,,SKC,0.00,VWS V14.01,2013-06-18 07:35:00,
2013-06-18 02:36:00,75.7,70.5,29.88,South,188,0.0,0.0,84,0.00,,SKC,0.00,VWS V14.01,2013-06-18 07:36:00,
2013-06-18 02:37:00,75.7,70.5,29.88,South,188,0.0,0.0,84,0.00,,SKC,0.00,VWS V14.01,2013-06-18 07:37:00,
2013-06-18 02:38:00,75.6,70.4,29.88,South,188,0.0,0.0,84,0.00,,SKC,0.00,VWS V14.01,2013-06-18 07:38:00,
2013-06-18 02:39:00,75.7,70.5,29.88,South,188,0.0,0.0,84,0.00,,SKC,0.00,VWS V14.01,2013-06-18 07:39:00,
2013-06-18 02:40:00,75.7,70.5,29.88,South,188,1.0,1.0,84,0.00,,SKC,0.00,VWS V14.01,2013-06-18 07:40:00,
2013-06-18 02:41:00,75.6,70.4,29.88,South,188,0.0,1.0,84,0.00,,SKC,0.00,VWS V14.01,2013-06-18 07:41:00,
2013-06-18 02:42:00,75.6,70.4,29.88,South,188,0.0,1.0,84,0.00,,SKC,0.00,VWS V14.01,2013-06-18 07:42:00,
2013-06-18 02:43:00,75.6,70.4,29.88,South,188,0.0,2.0,84,0.00,,SKC,0.00,VWS V14.01,2013-06-18 07:43:00,
2013-06-18 02:44:00,75.6,70.4,29.88,South,188,0.0,0.0,84,0.00,,SKC,0.00,VWS V14.01,2013-06-18 07:44:00,
2013-06-18 02:45:00,75.6,70.4,29.88,South,188,2.0,4.0,84,0.00,,SKC,0.00,VWS V14.01,2013-06-18 07:45:00,
2013-06-18 02:46:00,75.6,70.4,29.88,SSW,193,6.0,6.0,84,0.00,,SKC,0.00,VWS V14.01,2013-06-18 07:46:00,
2013-06-18 02:47:00,75.6,70.4,29.88,SSW,193,6.0,6.0,84,0.00,,SKC,0.00,VWS V14.01,2013-06-18 07:47:00,
2013-06-18 02:48:00,75.6,70.4,29.88,SSW,192,3.0,5.0,84,0.00,,SKC,0.00,VWS V14.01,2013-06-18 07:48:00,
2013-06-18 02:49:00,75.7,70.2,29.88,SSW,192,1.0,3.0,83,0.00,,SKC,0.00,VWS V14.01,2013-06-18 07:49:00,
2013-06-18 02:50:00,75.7,70.2,29.88,SSW,192,3.0,3.0,83,0.00,,SKC,0.00,VWS V14.01,2013-06-18 07:50:00,
2013-06-18 02:51:00,75.7,70.2,29.88,South,186,5.0,7.0,83,0.00,,SKC,0.00,VWS V14.01,2013-06-18 07:51:00,
2013-06-18 02:52:00,75.7,70.2,29.88,South,186,5.0,7.0,83,0.00,,SKC,0.00,VWS V14.01,2013-06-18 07:52:00,
2013-06-18 02:53:00,75.6,70.1,29.88,South,173,2.0,4.0,83,0.00,,SKC,0.00,VWS V14.01,2013-06-18 07:53:00,
2013-06-18 02:54:00,75.6,70.1,29.88,South,175,1.0,4.0,83,0.00,,SKC,0.00,VWS V14.01,2013-06-18 07:54:00,
2013-06-18 02:55:00,75.6,70.1,29.88,South,175,0.0,3.0,83,0.00,,SKC,0.00,VWS V14.01,2013-06-18 07:55:00,
2013-06-18 02:56:00,75.6,70.1,29.88,South,175,2.0,3.0,83,0.00,,SKC,0.00,VWS V14.01,2013-06-18 07:56:00,
2013-06-18 02:57:00,75.6,70.1,29.88,South,175,2.0,3.0,83,0.00,,SKC,0.00,VWS V14.01,2013-06-18 07:57:00,
2013-06-18 02:58:00,75.6,70.1,29.88,South,175,0.0,2.0,83,0.00,,SKC,0.00,VWS V14.01,2013-06-18 07:58:00,
2013-06-18 02:59:00,75.6,70.1,29.88,South,175,0.0,2.0,83,0.00,,SKC,0.00,VWS V14.01,2013-06-18 07:59:00,
2013-06-18 03:00:00,75.5,70.0,29.88,South,175,3.0,3.0,83,0.00,,SKC,0.00,VWS V14.01,2013-06-18 08:00:00,
2013-06-18 03:01:00,75.5,70.0,29.88,South,175,3.0,4.0,83,0.00,,SKC,0.00,VWS V14.01,2013-06-18 08:01:00,
2013-06-18 03:02:00,75.5,70.0,29.88,South,175,4.0,4.0,83,0.00,,SKC,0.00,VWS V14.01,2013-06-18 08:02:00,
2013-06-18 03:03:00,75.5,70.0,29.88,South,178,5.0,5.0,83,0.00,,SKC,0.00,VWS V14.01,2013-06-18 08:03:00,
2013-06-18 03:04:00,75.5,70.0,29.88,South,178,5.0,5.0,83,0.00,,SKC,0.00,VWS V14.01,2013-06-18 08:04:00,
2013-06-18 03:05:00,75.5,70.0,29.88,South,180,3.0,6.0,83,0.00,,SKC,0.00,VWS V14.01,2013-06-18 08:05:00,
2013-06-18 03:06:00,75.5,70.0,29.88,South,184,7.0,9.0,83,0.00,,SKC,0.00,VWS V14.01,2013-06-18 08:06:00,
2013-06-18 03:07:00,75.5,70.0,29.88,South,184,7.0,9.0,83,0.00,,SKC,0.00,VWS V14.01,2013-06-18 08:07:00,
2013-06-18 03:08:00,75.5,70.0,29.88,South,184,5.0,6.0,83,0.00,,SKC,0.00,VWS V14.01,2013-06-18 08:08:00,
2013-06-18 03:09:00,75.4,69.9,29.88,South,186,4.0,8.0,83,0.00,,SKC,0.00,VWS V14.01,2013-06-18 08:09:00,
2013-06-18 03:10:00,75.4,69.9,29.88,South,183,4.0,5.0,83,0.00,,SKC,0.00,VWS V14.01,2013-06-18 08:10:00,
2013-06-18 03:11:00,75.4,69.9,29.87,South,184,3.0,5.0,83,0.00,,SKC,0.00,VWS V14.01,2013-06-18 08:11:00,
2013-06-18 03:12:00,75.4,69.9,29.87,South,184,3.0,5.0,83,0.00,,SKC,0.00,VWS V14.01,2013-06-18 08:12:00,
2013-06-18 03:13:00,75.4,69.9,29.87,South,173,4.0,5.0,83,0.00,,SKC,0.00,VWS V14.01,2013-06-18 08:13:00,
2013-06-18 03:14:00,75.5,70.0,29.87,South,173,2.0,4.0,83,0.00,,SKC,0.00,VWS V14.01,2013-06-18 08:14:00,
2013-06-18 03:15:00,75.4,69.9,29.87,South,175,2.0,6.0,83,0.00,,SKC,0.00,VWS V14.01,2013-06-18 08:15:00,
2013-06-18 03:16:00,75.4,69.9,29.87,South,175,4.0,5.0,83,0.00,,SKC,0.00,VWS V14.01,2013-06-18 08:16:00,
2013-06-18 03:17:00,75.4,69.9,29.87,South,175,4.0,5.0,83,0.00,,SKC,0.00,VWS V14.01,2013-06-18 08:17:00,
2013-06-18 03:18:00,75.4,69.9,29.87,South,175,3.0,6.0,83,0.00,,SKC,0.00,VWS V14.01,2013-06-18 08:18:00,
2013-06-18 03:19:00,75.4,69.9,29.87,South,175,3.0,4.0,83,0.00,,SKC,0.00,VWS V14.01,2013-06-18 08:19:00,
2013-06-18 03:20:00,75.4,69.9,29.87,South,175,2.0,3.0,83,0.00,,SKC,0.00,VWS V14.01,2013-06-18 08:20:00,
2013-06-18 03:21:00,75.4,69.9,29.87,South,175,3.0,4.0,83,0.00,,SKC,0.00,VWS V14.01,2013-06-18 08:21:00,
2013-06-18 03:22:00,75.4,69.9,29.87,South,175,3.0,4.0,83,0.00,,SKC,0.00,VWS V14.01,2013-06-18 08:22:00,
2013-06-18 03:23:00,75.4,69.9,29.87,South,175,0.0,5.0,83,0.00,,SKC,0.00,VWS V14.01,2013-06-18 08:23:00,
2013-06-18 03:24:00,75.4,69.9,29.87,South,175,3.0,3.0,83,0.00,,SKC,0.00,VWS V14.01,2013-06-18 08:24:00,
2013-06-18 03:25:00,75.4,69.9,29.87,South,175,4.0,4.0,83,0.00,,SKC,0.00,VWS V14.01,2013-06-18 08:25:00,
2013-06-18 03:26:00,75.4,69.9,29.87,South,175,1.0,4.0,83,0.00,,SKC,0.00,VWS V14.01,2013-06-18 08:26:00,
2013-06-18 03:27:00,75.4,69.9,29.87,South,175,1.0,4.0,83,0.00,,SKC,0.00,VWS V14.01,2013-06-18 08:27:00,
2013-06-18 03:28:00,75.4,69.9,29.87,South,175,5.0,6.0,83,0.00,,SKC,0.00,VWS V14.01,2013-06-18 08:28:00,
2013-06-18 03:29:00,75.4,69.9,29.87,South,175,4.0,6.0,83,0.00,,SKC,0.00,VWS V14.01,2013-06-18 08:29:00,
2013-06-18 03:30:00,75.4,69.9,29.87,SSW,194,4.0,6.0,83,0.00,,SKC,0.00,VWS V14.01,2013-06-18 08:30:00,
2013-06-18 03:31:00,75.4,69.9,29.87,SSW,205,10.0,12.0,83,0.00,,SKC,0.00,VWS V14.01,2013-06-18 08:31:00,
2013-06-18 03:32:00,75.4,69.9,29.87,SSW,205,10.0,12.0,83,0.00,,SKC,0.00,VWS V14.01,2013-06-18 08:32:00,
2013-06-18 03:33:00,75.5,69.6,29.87,SSW,196,1.0,7.0,82,0.00,,SKC,0.00,VWS V14.01,2013-06-18 08:33:00,
2013-06-18 03:34:00,75.5,69.6,29.87,SSW,192,3.0,4.0,82,0.00,,SKC,0.00,VWS V14.01,2013-06-18 08:34:00,
2013-06-18 03:35:00,75.5,69.6,29.87,SSW,192,3.0,5.0,82,0.00,,SKC,0.00,VWS V14.01,2013-06-18 08:35:00,
2013-06-18 03:36:00,75.5,69.6,29.87,SSW,195,5.0,7.0,82,0.00,,SKC,0.00,VWS V14.01,2013-06-18 08:36:00,
2013-06-18 03:37:00,75.5,69.6,29.87,SSW,195,5.0,7.0,82,0.00,,SKC,0.00,VWS V14.01,2013-06-18 08:37:00,
2013-06-18 03:38:00,75.5,69.6,29.87,South,185,5.0,5.0,82,0.00,,SKC,0.00,VWS V14.01,2013-06-18 08:38:00,
2013-06-18 03:39:00,75.5,69.6,29.87,SSW,194,7.0,7.0,82,0.00,,SKC,0.00,VWS V14.01,2013-06-18 08:39:00,
2013-06-18 03:40:00,75.5,69.6,29.87,SSW,205,8.0,10.0,82,0.00,,SKC,0.00,VWS V14.01,2013-06-18 08:40:00,
2013-06-18 03:41:00,75.5,69.6,29.86,SSW,198,4.0,9.0,82,0.00,,SKC,0.00,VWS V14.01,2013-06-18 08:41:00,
2013-06-18 03:42:00,75.5,69.6,29.86,SSW,198,4.0,9.0,82,0.00,,SKC,0.00,VWS V14.01,2013-06-18 08:42:00,
2013-06-18 03:43:00,75.4,69.5,29.87,SSW,209,6.0,9.0,82,0.00,,SKC,0.00,VWS V14.01,2013-06-18 08:43:00,
2013-06-18 03:44:00,75.4,69.5,29.87,SSW,196,4.0,6.0,82,0.00,,SKC,0.00,VWS V14.01,2013-06-18 08:44:00,
2013-06-18 03:45:00,75.4,69.5,29.87,SSW,203,2.0,7.0,82,0.00,,SKC,0.00,VWS V14.01,2013-06-18 08:45:00,
2013-06-18 03:46:00,75.4,69.5,29.87,SSW,203,0.0,3.0,82,0.00,,SKC,0.00,VWS V14.01,2013-06-18 08:46:00,
2013-06-18 03:47:00,75.4,69.5,29.87,SSW,203,0.0,0.0,82,0.00,,SKC,0.00,VWS V14.01,2013-06-18 08:47:00,
2013-06-18 03:48:00,75.4,69.5,29.87,SSW,203,2.0,5.0,82,0.00,,SKC,0.00,VWS V14.01,2013-06-18 08:48:00,
2013-06-18 03:49:00,75.4,69.5,29.87,SSW,205,4.0,6.0,82,0.00,,SKC,0.00,VWS V14.01,2013-06-18 08:49:00,
2013-06-18 03:50:00,75.4,69.5,29.87,SSW,205,3.0,5.0,82,0.00,,SKC,0.00,VWS V14.01,2013-06-18 08:50:00,
2013-06-18 03:51:00,75.4,69.5,29.87,SSW,205,3.0,4.0,82,0.00,,SKC,0.00,VWS V14.01,2013-06-18 08:51:00,
2013-06-18 03:52:00,75.4,69.5,29.87,SSW,205,3.0,4.0,82,0.00,,SKC,0.00,VWS V14.01,2013-06-18 08:52:00,
2013-06-18 03:53:00,75.3,69.4,29.87,SSW,205,3.0,3.0,82,0.00,,SKC,0.00,VWS V14.01,2013-06-18 08:53:00,
2013-06-18 03:54:00,75.3,69.4,29.88,SSW,205,3.0,3.0,82,0.00,,SKC,0.00,VWS V14.01,2013-06-18 08:54:00,
2013-06-18 03:55:00,75.3,69.4,29.88,SSW,205,0.0,3.0,82,0.00,,SKC,0.00,VWS V14.01,2013-06-18 08:55:00,
2013-06-18 03:56:00,75.3,69.4,29.88,SSW,205,1.0,3.0,82,0.00,,SKC,0.00,VWS V14.01,2013-06-18 08:56:00,
2013-06-18 03:57:00,75.3,69.4,29.88,SSW,205,1.0,3.0,82,0.00,,SKC,0.00,VWS V14.01,2013-06-18 08:57:00,
2013-06-18 03:58:00,75.3,69.4,29.88,SSW,203,2.0,8.0,82,0.00,,SKC,0.00,VWS V14.01,2013-06-18 08:58:00,
2013-06-18 03:59:00,75.3,69.4,29.88,SSW,203,2.0,3.0,82,0.00,,SKC,0.00,VWS V14.01,2013-06-18 08:59:00,
2013-06-18 04:00:00,75.3,69.4,29.88,SSW,204,1.0,5.0,82,0.00,,SKC,0.00,VWS V14.01,2013-06-18 09:00:00,
2013-06-18 04:01:00,75.3,69.4,29.88,WSW,250,3.0,4.0,82,0.00,,SKC,0.00,VWS V14.01,2013-06-18 09:01:00,
2013-06-18 04:02:00,75.3,69.4,29.88,WSW,250,3.0,4.0,82,0.00,,SKC,0.00,VWS V14.01,2013-06-18 09:02:00,
2013-06-18 04:03:00,75.3,69.4,29.88,WSW,257,2.0,5.0,82,0.00,,SKC,0.00,VWS V14.01,2013-06-18 09:03:00,
2013-06-18 04:04:00,75.3,69.4,29.88,WSW,257,4.0,4.0,82,0.00,,SKC,0.00,VWS V14.01,2013-06-18 09:04:00,
2013-06-18 04:05:00,75.3,69.4,29.88,SW,234,5.0,6.0,82,0.00,,SKC,0.00,VWS V14.01,2013-06-18 09:05:00,
2013-06-18 04:06:00,75.3,69.4,29.89,West,266,5.0,8.0,82,0.00,,SKC,0.00,VWS V14.01,2013-06-18 09:06:00,
2013-06-18 04:07:00,75.3,69.4,29.89,West,266,5.0,8.0,82,0.00,,SKC,0.00,VWS V14.01,2013-06-18 09:07:00,
2013-06-18 04:08:00,75.1,69.2,29.89,WSW,247,3.0,15.0,82,0.00,,SKC,0.00,VWS V14.01,2013-06-18 09:08:00,
2013-06-18 04:09:00,74.9,67.6,29.89,West,273,9.0,11.0,78,0.00,,SKC,0.00,VWS V14.01,2013-06-18 09:09:00,
2013-06-18 04:10:00,74.7,67.0,29.89,WNW,283,6.0,9.0,77,0.00,,SKC,0.00,VWS V14.01,2013-06-18 09:10:00,
2013-06-18 04:11:00,74.6,66.9,29.89,SW,215,2.0,6.0,77,0.00,,SKC,0.00,VWS V14.01,2013-06-18 09:11:00,
2013-06-18 04:12:00,74.6,66.9,29.89,SW,215,2.0,6.0,77,0.00,,SKC,0.00,VWS V14.01,2013-06-18 09:12:00,
2013-06-18 04:13:00,74.3,65.5,29.89,WNW,292,10.0,10.0,74,0.00,,SKC,0.00,VWS V14.01,2013-06-18 09:13:00,
2013-06-18 04:14:00,74.2,65.0,29.90,North,360,6.0,16.0,73,0.00,,SKC,0.00,VWS V14.01,2013-06-18 09:14:00,
2013-06-18 04:15:00,74.0,64.0,29.90,WNW,303,12.0,12.0,71,0.00,,SKC,0.00,VWS V14.01,2013-06-18 09:15:00,
2013-06-18 04:16:00,73.8,63.8,29.90,WSW,240,1.0,13.0,71,0.00,,SKC,0.00,VWS V14.01,2013-06-18 09:16:00,
2013-06-18 04:17:00,73.8,63.8,29.90,WSW,240,1.0,13.0,71,0.00,,SKC,0.00,VWS V14.01,2013-06-18 09:17:00,
2013-06-18 04:18:00,73.4,63.4,29.90,WNW,298,6.0,13.0,71,0.00,,SKC,0.00,VWS V14.01,2013-06-18 09:18:00,
2013-06-18 04:19:00,73.2,63.2,29.90,NNW,341,10.0,12.0,71,0.00,,SKC,0.00,VWS V14.01,2013-06-18 09:19:00,
2013-06-18 04:20:00,73.0,63.0,29.90,NNW,338,3.0,14.0,71,0.00,,SKC,0.00,VWS V14.01,2013-06-18 09:20:00,
2013-06-18 04:21:00,72.8,63.3,29.90,WNW,295,6.0,10.0,72,0.00,,SKC,0.00,VWS V14.01,2013-06-18 09:21:00,
2013-06-18 04:22:00,72.8,63.3,29.90,WNW,295,6.0,10.0,72,0.00,,SKC,0.00,VWS V14.01,2013-06-18 09:22:00,
2013-06-18 04:23:00,72.3,63.6,29.90,NNW,331,3.0,12.0,74,0.00,,SKC,0.00,VWS V14.01,2013-06-18 09:23:00,
2013-06-18 04:24:00,72.0,63.3,29.90,WNW,303,5.0,10.0,74,0.00,,SKC,0.00,VWS V14.01,2013-06-18 09:24:00,
2013-06-18 04:25:00,71.7,63.4,29.90,NW,310,5.0,11.0,75,0.00,,SKC,0.00,VWS V14.01,2013-06-18 09:25:00,
2013-06-18 04:26:00,71.5,63.5,29.90,WNW,294,6.0,7.0,76,0.00,,SKC,0.00,VWS V14.01,2013-06-18 09:26:00,
2013-06-18 04:27:00,71.5,63.5,29.90,WNW,294,6.0,7.0,76,0.00,,SKC,0.00,VWS V14.01,2013-06-18 09:27:00,
2013-06-18 04:28:00,70.8,63.2,29.90,NNW,331,7.0,7.0,77,0.01,,SKC,0.01,VWS V14.01,2013-06-18 09:28:00,
2013-06-18 04:29:00,70.5,63.3,29.90,NW,309,4.0,9.0,78,0.01,,SKC,0.01,VWS V14.01,2013-06-18 09:29:00,
2013-06-18 04:30:00,70.2,63.4,29.90,NW,313,2.0,5.0,79,0.01,,SKC,0.01,VWS V14.01,2013-06-18 09:30:00,
2013-06-18 04:31:00,69.9,63.1,29.90,NNW,327,5.0,7.0,79,0.01,,SKC,0.01,VWS V14.01,2013-06-18 09:31:00,
2013-06-18 04:32:00,69.9,63.1,29.90,NNW,327,5.0,7.0,79,0.01,,SKC,0.01,VWS V14.01,2013-06-18 09:32:00,
2013-06-18 04:33:00,69.4,63.3,29.90,WNW,288,1.0,5.0,81,0.01,,SKC,0.01,VWS V14.01,2013-06-18 09:33:00,
2013-06-18 04:34:00,69.2,63.1,29.90,WNW,288,0.0,1.0,81,0.02,,SKC,0.02,VWS V14.01,2013-06-18 09:34:00,
2013-06-18 04:35:00,69.0,63.3,29.90,WNW,288,0.0,2.0,82,0.02,,SKC,0.02,VWS V14.01,2013-06-18 09:35:00,
2013-06-18 04:36:00,68.9,63.2,29.90,NNW,328,4.0,4.0,82,0.02,,SKC,0.02,VWS V14.01,2013-06-18 09:36:00,
2013-06-18 04:37:00,68.9,63.2,29.90,NNW,328,4.0,4.0,82,0.02,,SKC,0.02,VWS V14.01,2013-06-18 09:37:00,
2013-06-18 04:38:00,68.6,63.2,29.90,NW,311,0.0,3.0,83,0.02,,SKC,0.02,VWS V14.01,2013-06-18 09:38:00,
2013-06-18 04:39:00,68.5,63.1,29.90,North,349,3.0,4.0,83,0.02,,SKC,0.02,VWS V14.01,2013-06-18 09:39:00,
2013-06-18 04:40:00,68.4,63.4,29.90,NW,308,3.0,4.0,84,0.03,,SKC,0.03,VWS V14.01,2013-06-18 09:40:00,
2013-06-18 04:41:00,68.2,63.2,29.90,NW,318,3.0,6.0,84,0.03,,SKC,0.03,VWS V14.01,2013-06-18 09:41:00,
2013-06-18 04:42:00,68.2,63.2,29.90,NW,318,3.0,6.0,84,0.03,,SKC,0.03,VWS V14.01,2013-06-18 09:42:00,
2013-06-18 04:43:00,68.0,63.0,29.90,WNW,300,3.0,5.0,84,0.04,,SKC,0.04,VWS V14.01,2013-06-18 09:43:00,
2013-06-18 04:44:00,67.9,63.2,29.90,NW,323,0.0,4.0,85,0.04,,SKC,0.04,VWS V14.01,2013-06-18 09:44:00,
2013-06-18 04:45:00,67.8,63.1,29.90,NW,325,0.0,3.0,85,0.05,,SKC,0.05,VWS V14.01,2013-06-18 09:45:00,
2013-06-18 04:46:00,67.7,63.0,29.90,NW,325,0.0,3.0,85,0.05,,SKC,0.05,VWS V14.01,2013-06-18 09:46:00,
2013-06-18 04:47:00,67.7,63.0,29.90,NW,325,0.0,3.0,85,0.05,,SKC,0.05,VWS V14.01,2013-06-18 09:47:00,
2013-06-18 04:48:00,67.6,62.9,29.90,NW,325,2.0,4.0,85,0.06,,SKC,0.06,VWS V14.01,2013-06-18 09:48:00,
2013-06-18 04:49:00,67.5,62.8,29.90,NNE,12,3.0,5.0,85,0.07,,SKC,0.07,VWS V14.01,2013-06-18 09:49:00,
2013-06-18 04:50:00,67.5,63.2,29.90,NNE,12,1.0,5.0,86,0.07,,SKC,0.07,VWS V14.01,2013-06-18 09:50:00,
2013-06-18 04:51:00,67.4,63.1,29.90,North,355,1.0,5.0,86,0.08,,SKC,0.08,VWS V14.01,2013-06-18 09:51:00,
2013-06-18 04:52:00,67.4,63.1,29.90,North,355,1.0,5.0,86,0.08,,SKC,0.08,VWS V14.01,2013-06-18 09:52:00,
2013-06-18 04:53:00,67.3,63.0,29.89,North,9,2.0,6.0,86,0.10,,SKC,0.10,VWS V14.01,2013-06-18 09:53:00,
2013-06-18 04:54:00,67.3,63.0,29.89,North,9,0.0,2.0,86,0.10,,SKC,0.10,VWS V14.01,2013-06-18 09:54:00,
2013-06-18 04:55:00,67.3,63.0,29.89,NNE,31,2.0,6.0,86,0.11,,SKC,0.11,VWS V14.01,2013-06-18 09:55:00,
2013-06-18 04:56:00,67.3,63.3,29.89,NNE,32,5.0,7.0,87,0.11,,SKC,0.11,VWS V14.01,2013-06-18 09:56:00,
2013-06-18 04:57:00,67.3,63.3,29.89,NNE,32,5.0,7.0,87,0.11,,SKC,0.11,VWS V14.01,2013-06-18 09:57:00,
2013-06-18 04:58:00,67.2,63.2,29.89,NNE,28,1.0,2.0,87,0.12,,SKC,0.12,VWS V14.01,2013-06-18 09:58:00,
2013-06-18 04:59:00,67.2,63.2,29.89,NNE,31,3.0,3.0,87,0.12,,SKC,0.12,VWS V14.01,2013-06-18 09:59:00,
2013-06-18 05:00:00,67.2,63.2,29.89,NNE,26,4.0,7.0,87,0.12,,SKC,0.12,VWS V14.01,2013-06-18 10:00:00,
2013-06-18 05:01:00,67.2,63.2,29.89,NNE,31,2.0,4.0,87,0.12,,SKC,0.12,VWS V14.01,2013-06-18 10:01:00,
2013-06-18 05:02:00,67.2,63.2,29.89,NNE,31,2.0,4.0,87,0.12,,SKC,0.12,VWS V14.01,2013-06-18 10:02:00,
2013-06-18 05:03:00,67.2,63.2,29.89,NNE,20,5.0,5.0,87,0.13,,SKC,0.13,VWS V14.01,2013-06-18 10:03:00,
2013-06-18 05:04:00,67.2,63.2,29.89,NNE,22,2.0,7.0,87,0.13,,SKC,0.13,VWS V14.01,2013-06-18 10:04:00,
2013-06-18 05:05:00,67.1,63.1,29.89,NNE,15,0.0,5.0,87,0.13,,SKC,0.13,VWS V14.01,2013-06-18 10:05:00,
2013-06-18 05:06:00,67.1,63.1,29.89,NNE,22,0.0,2.0,87,0.13,,SKC,0.13,VWS V14.01,2013-06-18 10:06:00,
2013-06-18 05:07:00,67.1,63.1,29.89,NNE,22,0.0,2.0,87,0.13,,SKC,0.13,VWS V14.01,2013-06-18 10:07:00,
2013-06-18 05:08:00,67.1,63.1,29.90,NNE,17,4.0,4.0,87,0.13,,SKC,0.13,VWS V14.01,2013-06-18 10:08:00,
2013-06-18 05:09:00,67.1,63.1,29.90,NNE,24,0.0,5.0,87,0.13,,SKC,0.13,VWS V14.01,2013-06-18 10:09:00,
2013-06-18 05:10:00,67.1,63.1,29.90,NNE,24,0.0,0.0,87,0.14,,SKC,0.14,VWS V14.01,2013-06-18 10:10:00,
2013-06-18 05:11:00,67.1,63.4,29.90,North,360,5.0,5.0,88,0.14,,SKC,0.14,VWS V14.01,2013-06-18 10:11:00,
2013-06-18 05:12:00,67.1,63.4,29.90,North,360,5.0,5.0,88,0.14,,SKC,0.14,VWS V14.01,2013-06-18 10:12:00,
2013-06-18 05:13:00,67.1,63.4,29.90,NNE,13,0.0,0.0,88,0.14,,SKC,0.14,VWS V14.01,2013-06-18 10:13:00,
2013-06-18 05:14:00,67.1,63.4,29.90,NNE,13,0.0,1.0,88,0.14,,SKC,0.14,VWS V14.01,2013-06-18 10:14:00,
2013-06-18 05:15:00,67.1,63.4,29.90,NNE,15,1.0,1.0,88,0.15,,SKC,0.15,VWS V14.01,2013-06-18 10:15:00,
2013-06-18 05:16:00,67.1,63.4,29.90,NNE,15,0.0,1.0,88,0.15,,SKC,0.15,VWS V14.01,2013-06-18 10:16:00,
2013-06-18 05:17:00,67.1,63.4,29.90,NNE,15,0.0,1.0,88,0.15,,SKC,0.15,VWS V14.01,2013-06-18 10:17:00,
2013-06-18 05:18:00,67.1,63.4,29.90,NNE,14,0.0,0.0,88,0.15,,SKC,0.15,VWS V14.01,2013-06-18 10:18:00,
2013-06-18 05:19:00,67.1,63.4,29.90,NNE,14,0.0,0.0,88,0.15,,SKC,0.15,VWS V14.01,2013-06-18 10:19:00,
2013-06-18 05:20:00,67.1,63.4,29.90,NNE,14,0.0,0.0,88,0.16,,SKC,0.16,VWS V14.01,2013-06-18 10:20:00,
2013-06-18 05:21:00,67.1,63.4,29.90,NNE,15,0.0,0.0,88,0.16,,SKC,0.16,VWS V14.01,2013-06-18 10:21:00,
2013-06-18 05:22:00,67.1,63.4,29.90,NNE,15,0.0,0.0,88,0.16,,SKC,0.16,VWS V14.01,2013-06-18 10:22:00,
2013-06-18 05:23:00,67.1,63.4,29.90,ENE,67,0.0,1.0,88,0.16,,SKC,0.16,VWS V14.01,2013-06-18 10:23:00,
2013-06-18 05:24:00,67.1,63.4,29.90,ENE,67,0.0,1.0,88,0.17,,SKC,0.17,VWS V14.01,2013-06-18 10:24:00,
2013-06-18 05:25:00,67.1,63.4,29.90,ENE,67,0.0,2.0,88,0.17,,SKC,0.17,VWS V14.01,2013-06-18 10:25:00,
2013-06-18 05:26:00,67.1,63.4,29.90,ENE,67,0.0,1.0,88,0.17,,SKC,0.17,VWS V14.01,2013-06-18 10:26:00,
2013-06-18 05:27:00,67.1,63.4,29.90,ENE,67,0.0,1.0,88,0.17,,SKC,0.17,VWS V14.01,2013-06-18 10:27:00,
2013-06-18 05:28:00,67.1,63.4,29.90,ENE,67,0.0,1.0,88,0.17,,SKC,0.18,VWS V14.01,2013-06-18 10:28:00,
2013-06-18 05:29:00,67.1,63.4,29.90,ENE,69,2.0,2.0,88,0.17,,SKC,0.18,VWS V14.01,2013-06-18 10:29:00,
2013-06-18 05:30:00,67.1,63.4,29.90,ENE,69,0.0,2.0,88,0.18,,SKC,0.19,VWS V14.01,2013-06-18 10:30:00,
2013-06-18 05:31:00,67.1,63.4,29.90,ENE,69,0.0,1.0,88,0.18,,SKC,0.19,VWS V14.01,2013-06-18 10:31:00,
2013-06-18 05:32:00,67.1,63.4,29.90,ENE,69,0.0,1.0,88,0.18,,SKC,0.19,VWS V14.01,2013-06-18 10:32:00,
2013-06-18 05:33:00,67.0,63.3,29.90,ENE,69,1.0,1.0,88,0.19,,SKC,0.20,VWS V14.01,2013-06-18 10:33:00,
2013-06-18 05:34:00,67.0,63.3,29.90,SE,135,3.0,3.0,88,0.19,,SKC,0.20,VWS V14.01,2013-06-18 10:34:00,
2013-06-18 05:35:00,67.0,63.3,29.90,SE,138,3.0,3.0,88,0.18,,SKC,0.20,VWS V14.01,2013-06-18 10:35:00,
2013-06-18 05:36:00,67.0,63.3,29.90,SSE,155,4.0,4.0,88,0.18,,SKC,0.20,VWS V14.01,2013-06-18 10:36:00,
2013-06-18 05:37:00,67.0,63.3,29.90,SSE,155,3.0,3.0,88,0.18,,SKC,0.20,VWS V14.01,2013-06-18 10:37:00,
2013-06-18 05:38:00,67.0,63.3,29.91,SSE,153,4.0,5.0,88,0.19,,SKC,0.21,VWS V14.01,2013-06-18 10:38:00,
2013-06-18 05:39:00,67.0,63.3,29.91,SSE,163,6.0,10.0,88,0.19,,SKC,0.21,VWS V14.01,2013-06-18 10:39:00,
2013-06-18 05:40:00,67.0,63.3,29.91,South,175,2.0,7.0,88,0.20,,SKC,0.22,VWS V14.01,2013-06-18 10:40:00,
2013-06-18 05:41:00,67.0,63.3,29.91,South,169,4.0,6.0,88,0.19,,SKC,0.22,VWS V14.01,2013-06-18 10:41:00,
2013-06-18 05:42:00,67.0,63.3,29.91,SSE,167,5.0,6.0,88,0.19,,SKC,0.22,VWS V14.01,2013-06-18 10:42:00,
2013-06-18 05:43:00,67.0,63.7,29.91,SSE,150,3.0,6.0,89,0.20,,SKC,0.23,VWS V14.01,2013-06-18 10:43:00,
2013-06-18 05:44:00,67.0,63.7,29.91,SSE,153,2.0,3.0,89,0.19,,SKC,0.23,VWS V14.01,2013-06-18 10:44:00,
2013-06-18 05:45:00,66.9,63.6,29.91,SSE,153,1.0,4.0,89,0.20,,SKC,0.24,VWS V14.01,2013-06-18 10:45:00,
2013-06-18 05:46:00,66.9,63.6,29.91,SSE,153,1.0,3.0,89,0.19,,SKC,0.24,VWS V14.01,2013-06-18 10:46:00,
2013-06-18 05:47:00,67.0,63.7,29.91,SSE,153,1.0,3.0,89,0.19,,SKC,0.24,VWS V14.01,2013-06-18 10:47:00,
2013-06-18 05:48:00,66.9,63.6,29.91,SSE,153,3.0,4.0,89,0.19,,SKC,0.25,VWS V14.01,2013-06-18 10:48:00,
2013-06-18 05:49:00,66.9,63.6,29.91,SSE,153,4.0,4.0,89,0.19,,SKC,0.25,VWS V14.01,2013-06-18 10:49:00,
2013-06-18 05:50:00,66.9,63.6,29.91,SSE,154,3.0,5.0,89,0.19,,SKC,0.26,VWS V14.01,2013-06-18 10:50:00,
2013-06-18 05:51:00,66.9,63.6,29.91,South,170,5.0,6.0,89,0.19,,SKC,0.26,VWS V14.01,2013-06-18 10:51:00,
2013-06-18 05:52:00,66.9,63.6,29.91,South,169,6.0,6.0,89,0.19,,SKC,0.26,VWS V14.01,2013-06-18 10:52:00,
2013-06-18 05:53:00,66.9,63.6,29.90,South,173,4.0,7.0,89,0.18,,SKC,0.27,VWS V14.01,2013-06-18 10:53:00,
2013-06-18 05:54:00,66.9,63.6,29.90,South,182,10.0,11.0,89,0.17,,SKC,0.27,VWS V14.01,2013-06-18 10:54:00,
2013-06-18 05:55:00,66.9,63.6,29.90,South,187,6.0,10.0,89,0.18,,SKC,0.28,VWS V14.01,2013-06-18 10:55:00,
2013-06-18 05:56:00,66.9,63.6,29.90,South,180,11.0,12.0,89,0.17,,SKC,0.28,VWS V14.01,2013-06-18 10:56:00,
2013-06-18 05:57:00,66.9,63.6,29.90,South,180,11.0,12.0,89,0.17,,SKC,0.28,VWS V14.01,2013-06-18 10:57:00,
2013-06-18 05:58:00,66.8,63.5,29.90,South,178,10.0,13.0,89,0.18,,SKC,0.29,VWS V14.01,2013-06-18 10:58:00,
2013-06-18 05:59:00,66.8,63.5,29.89,South,185,10.0,15.0,89,0.17,,SKC,0.29,VWS V14.01,2013-06-18 10:59:00,
2013-06-18 06:00:00,66.8,63.5,29.89,South,171,11.0,21.0,89,0.18,,SKC,0.30,VWS V14.01,2013-06-18 11:00:00,
2013-06-18 06:01:00,66.7,63.4,29.89,South,186,10.0,18.0,89,0.18,,SKC,0.30,VWS V14.01,2013-06-18 11:01:00,
2013-06-18 06:02:00,66.7,63.4,29.89,South,186,10.0,18.0,89,0.18,,SKC,0.30,VWS V14.01,2013-06-18 11:02:00,
2013-06-18 06:03:00,66.7,63.4,29.89,South,173,8.0,20.0,89,0.18,,SKC,0.31,VWS V14.01,2013-06-18 11:03:00,
2013-06-18 06:04:00,66.7,63.4,29.88,SSE,165,9.0,17.0,89,0.19,,SKC,0.32,VWS V14.01,2013-06-18 11:04:00,
2013-06-18 06:05:00,66.6,63.3,29.88,SE,135,11.0,14.0,89,0.19,,SKC,0.32,VWS V14.01,2013-06-18 11:05:00,
2013-06-18 06:06:00,66.6,63.3,29.88,SSE,165,8.0,16.0,89,0.19,,SKC,0.32,VWS V14.01,2013-06-18 11:06:00,
2013-06-18 06:07:00,66.6,63.3,29.88,SSE,165,8.0,16.0,89,0.19,,SKC,0.32,VWS V14.01,2013-06-18 11:07:00,
2013-06-18 06:08:00,66.6,63.6,29.88,South,177,7.0,12.0,90,0.20,,SKC,0.33,VWS V14.01,2013-06-18 11:08:00,
2013-06-18 06:09:00,66.6,63.6,29.87,SSE,155,9.0,13.0,90,0.21,,SKC,0.34,VWS V14.01,2013-06-18 11:09:00,
2013-06-18 06:10:00,66.6,63.6,29.87,SSE,164,9.0,13.0,90,0.21,,SKC,0.34,VWS V14.01,2013-06-18 11:10:00,
2013-06-18 06:11:00,66.5,63.5,29.86,SSE,152,8.0,15.0,90,0.21,,SKC,0.35,VWS V14.01,2013-06-18 11:11:00,
2013-06-18 06:12:00,66.5,63.5,29.86,SSE,164,9.0,15.0,90,0.21,,SKC,0.35,VWS V14.01,2013-06-18 11:12:00,
2013-06-18 06:13:00,66.5,63.5,29.85,SSE,150,6.0,16.0,90,0.21,,SKC,0.35,VWS V14.01,2013-06-18 11:13:00,
2013-06-18 06:14:00,66.5,63.5,29.85,SSE,159,13.0,17.0,90,0.21,,SKC,0.35,VWS V14.01,2013-06-18 11:14:00,
2013-06-18 06:15:00,66.5,63.5,29.85,SSE,167,10.0,16.0,90,0.21,,SKC,0.35,VWS V14.01,2013-06-18 11:15:00,
2013-06-18 06:16:00,66.5,63.5,29.85,SSE,163,11.0,18.0,90,0.20,,SKC,0.35,VWS V14.01,2013-06-18 11:16:00,
2013-06-18 06:17:00,66.5,63.5,29.84,SE,124,13.0,13.0,90,0.20,,SKC,0.35,VWS V14.01,2013-06-18 11:17:00,
2013-06-18 06:18:00,66.6,63.6,29.83,SE,136,11.0,17.0,90,0.21,,SKC,0.36,VWS V14.01,2013-06-18 11:18:00,
2013-06-18 06:19:00,66.6,63.6,29.83,SSE,157,12.0,16.0,90,0.21,,SKC,0.36,VWS V14.01,2013-06-18 11:19:00,
2013-06-18 06:20:00,66.6,63.6,29.82,SE,137,15.0,19.0,90,0.21,,SKC,0.36,VWS V14.01,2013-06-18 11:20:00,
2013-06-18 06:21:00,66.7,63.7,29.81,SSE,153,10.0,16.0,90,0.20,,SKC,0.36,VWS V14.01,2013-06-18 11:21:00,
2013-06-18 06:22:00,66.7,63.7,29.81,SSE,153,10.0,16.0,90,0.20,,SKC,0.36,VWS V14.01,2013-06-18 11:22:00,
2013-06-18 06:23:00,66.7,63.7,29.81,South,170,12.0,24.0,90,0.20,,SKC,0.36,VWS V14.01,2013-06-18 11:23:00,
2013-06-18 06:24:00,66.7,63.7,29.81,SSE,167,18.0,18.0,90,0.21,,SKC,0.37,VWS V14.01,2013-06-18 11:24:00,
2013-06-18 06:25:00,66.8,63.8,29.81,SSE,153,7.0,21.0,90,0.20,,SKC,0.37,VWS V14.01,2013-06-18 11:25:00,
2013-06-18 06:26:00,66.8,63.8,29.81,SE,130,12.0,12.0,90,0.20,,SKC,0.37,VWS V14.01,2013-06-18 11:26:00,
2013-06-18 06:27:00,66.8,63.8,29.82,SE,143,11.0,12.0,90,0.20,,SKC,0.37,VWS V14.01,2013-06-18 11:27:00,
2013-06-18 06:28:00,66.8,63.8,29.82,South,188,13.0,13.0,90,0.20,,SKC,0.37,VWS V14.01,2013-06-18 11:28:00,
2013-06-18 06:29:00,66.8,63.8,29.82,SSW,192,4.0,13.0,90,0.19,,SKC,0.37,VWS V14.01,2013-06-18 11:29:00,
2013-06-18 06:30:00,66.9,63.9,29.82,South,185,7.0,10.0,90,0.19,,SKC,0.37,VWS V14.01,2013-06-18 11:30:00,
2013-06-18 06:31:00,66.9,63.9,29.83,SSW,197,15.0,15.0,90,0.18,,SKC,0.37,VWS V14.01,2013-06-18 11:31:00,
2013-06-18 06:32:00,66.9,63.9,29.83,SSW,197,15.0,15.0,90,0.18,,SKC,0.37,VWS V14.01,2013-06-18 11:32:00,
2013-06-18 06:33:00,67.0,64.0,29.83,SSW,196,4.0,9.0,90,0.19,,SKC,0.38,VWS V14.01,2013-06-18 11:33:00,
2013-06-18 06:34:00,67.0,64.0,29.83,South,182,0.0,4.0,90,0.18,,SKC,0.38,VWS V14.01,2013-06-18 11:34:00,
2013-06-18 06:35:00,67.0,64.0,29.83,South,175,0.0,3.0,90,0.18,,SKC,0.38,VWS V14.01,2013-06-18 11:35:00,
2013-06-18 06:36:00,67.0,64.0,29.84,South,175,0.0,1.0,90,0.18,,SKC,0.38,VWS V14.01,2013-06-18 11:36:00,
2013-06-18 06:37:00,67.0,64.0,29.84,South,175,0.0,1.0,90,0.18,,SKC,0.38,VWS V14.01,2013-06-18 11:37:00,
2013-06-18 06:38:00,67.0,64.0,29.84,ENE,74,0.0,5.0,90,0.17,,SKC,0.38,VWS V14.01,2013-06-18 11:38:00,
2013-06-18 06:39:00,67.0,64.0,29.84,ENE,69,2.0,2.0,90,0.17,,SKC,0.38,VWS V14.01,2013-06-18 11:39:00,
2013-06-18 06:40:00,67.1,64.1,29.84,NNE,26,3.0,5.0,90,0.17,,SKC,0.38,VWS V14.01,2013-06-18 11:40:00,
2013-06-18 06:41:00,67.0,64.0,29.84,NNE,15,3.0,5.0,90,0.16,,SKC,0.38,VWS V14.01,2013-06-18 11:41:00,
2013-06-18 06:42:00,67.0,64.0,29.84,NNE,15,3.0,3.0,90,0.16,,SKC,0.38,VWS V14.01,2013-06-18 11:42:00,
2013-06-18 06:43:00,67.0,64.0,29.84,NE,34,5.0,8.0,90,0.15,,SKC,0.38,VWS V14.01,2013-06-18 11:43:00,
2013-06-18 06:44:00,67.0,64.0,29.84,NNE,26,3.0,7.0,90,0.15,,SKC,0.38,VWS V14.01,2013-06-18 11:44:00,
2013-06-18 06:45:00,67.0,64.0,29.84,ENE,57,4.0,5.0,90,0.15,,SKC,0.38,VWS V14.01,2013-06-18 11:45:00,
2013-06-18 06:46:00,67.0,64.0,29.84,NNE,28,2.0,5.0,90,0.14,,SKC,0.38,VWS V14.01,2013-06-18 11:46:00,
2013-06-18 06:47:00,67.0,64.0,29.84,NNE,28,2.0,5.0,90,0.14,,SKC,0.38,VWS V14.01,2013-06-18 11:47:00,
2013-06-18 06:48:00,67.0,64.0,29.84,NNE,28,0.0,1.0,90,0.13,,SKC,0.38,VWS V14.01,2013-06-18 11:48:00,
2013-06-18 06:49:00,67.0,64.0,29.84,NNE,28,0.0,1.0,90,0.13,,SKC,0.38,VWS V14.01,2013-06-18 11:49:00,
2013-06-18 06:50:00,66.9,63.9,29.85,NNE,28,0.0,2.0,90,0.13,,SKC,0.38,VWS V14.01,2013-06-18 11:50:00,
2013-06-18 06:51:00,66.9,63.9,29.85,NNE,28,0.0,0.0,90,0.12,,SKC,0.38,VWS V14.01,2013-06-18 11:51:00,
2013-06-18 06:52:00,66.9,63.9,29.85,NNE,28,0.0,0.0,90,0.12,,SKC,0.38,VWS V14.01,2013-06-18 11:52:00,
2013-06-18 06:53:00,66.9,63.9,29.86,WSW,243,3.0,3.0,90,0.12,,SKC,0.38,VWS V14.01,2013-06-18 11:53:00,
2013-06-18 06:54:00,66.9,63.9,29.87,West,272,5.0,6.0,90,0.11,,SKC,0.38,VWS V14.01,2013-06-18 11:54:00,
2013-06-18 06:55:00,67.0,64.0,29.87,WSW,248,18.0,22.0,90,0.11,,SKC,0.38,VWS V14.01,2013-06-18 11:55:00,
2013-06-18 06:56:00,67.0,64.0,29.88,SW,229,5.0,18.0,90,0.10,,SKC,0.38,VWS V14.01,2013-06-18 11:56:00,
2013-06-18 06:57:00,67.0,64.0,29.88,SW,229,5.0,18.0,90,0.10,,SKC,0.38,VWS V14.01,2013-06-18 11:57:00,
2013-06-18 06:58:00,67.1,64.1,29.89,WSW,252,10.0,10.0,90,0.10,,SKC,0.38,VWS V14.01,2013-06-18 11:58:00,
2013-06-18 06:59:00,67.1,64.1,29.89,WSW,242,3.0,14.0,90,0.09,,SKC,0.38,VWS V14.01,2013-06-18 11:59:00,
2013-06-18 07:00:00,67.2,64.2,29.89,West,272,3.0,5.0,90,0.09,,SKC,0.38,VWS V14.01,2013-06-18 12:00:00,
2013-06-18 07:01:00,67.2,64.2,29.88,SSW,197,0.0,5.0,90,0.08,,SKC,0.38,VWS V14.01,2013-06-18 12:01:00,
2013-06-18 07:02:00,67.2,64.2,29.88,SSW,197,0.0,5.0,90,0.08,,SKC,0.38,VWS V14.01,2013-06-18 12:02:00,
2013-06-18 07:03:00,67.2,64.2,29.88,SSW,198,1.0,1.0,90,0.07,,SKC,0.38,VWS V14.01,2013-06-18 12:03:00,
2013-06-18 07:04:00,67.2,64.2,29.89,SW,236,3.0,4.0,90,0.07,,SKC,0.38,VWS V14.01,2013-06-18 12:04:00,
2013-06-18 07:05:00,67.3,64.3,29.89,WSW,256,6.0,7.0,90,0.06,,SKC,0.38,VWS V14.01,2013-06-18 12:05:00,
2013-06-18 07:06:00,67.3,64.3,29.89,NW,307,2.0,6.0,90,0.06,,SKC,0.38,VWS V14.01,2013-06-18 12:06:00,
2013-06-18 07:07:00,67.3,64.3,29.89,NW,307,2.0,6.0,90,0.06,,SKC,0.38,VWS V14.01,2013-06-18 12:07:00,
2013-06-18 07:08:00,67.3,64.3,29.88,West,273,4.0,4.0,90,0.05,,SKC,0.38,VWS V14.01,2013-06-18 12:08:00,
2013-06-18 07:09:00,67.3,64.3,29.89,West,262,4.0,5.0,90,0.05,,SKC,0.38,VWS V14.01,2013-06-18 12:09:00,
2013-06-18 07:10:00,67.3,64.3,29.89,West,259,3.0,4.0,90,0.04,,SKC,0.38,VWS V14.01,2013-06-18 12:10:00,
2013-06-18 07:11:00,67.3,64.3,29.89,West,259,4.0,4.0,90,0.04,,SKC,0.38,VWS V14.01,2013-06-18 12:11:00,
2013-06-18 07:12:00,67.4,64.4,29.89,West,259,3.0,4.0,90,0.03,,SKC,0.38,VWS V14.01,2013-06-18 12:12:00,
2013-06-18 07:13:00,67.4,64.4,29.89,West,259,1.0,3.0,90,0.03,,SKC,0.38,VWS V14.01,2013-06-18 12:13:00,
2013-06-18 07:14:00,67.3,64.3,29.89,West,259,0.0,1.0,90,0.03,,SKC,0.38,VWS V14.01,2013-06-18 12:14:00,
2013-06-18 07:15:00,67.4,64.4,29.89,West,260,2.0,4.0,90,0.03,,SKC,0.38,VWS V14.01,2013-06-18 12:15:00,
2013-06-18 07:16:00,67.3,64.3,29.89,West,260,0.0,2.0,90,0.03,,SKC,0.38,VWS V14.01,2013-06-18 12:16:00,
2013-06-18 07:17:00,67.3,64.3,29.89,West,260,0.0,0.0,90,0.03,,SKC,0.38,VWS V14.01,2013-06-18 12:17:00,
2013-06-18 07:18:00,67.3,64.3,29.89,West,260,1.0,3.0,90,0.02,,SKC,0.38,VWS V14.01,2013-06-18 12:18:00,
2013-06-18 07:19:00,67.3,64.3,29.89,West,260,0.0,3.0,90,0.02,,SKC,0.38,VWS V14.01,2013-06-18 12:19:00,
2013-06-18 07:20:00,67.3,64.3,29.89,West,260,0.0,0.0,90,0.02,,SKC,0.38,VWS V14.01,2013-06-18 12:20:00,
2013-06-18 07:21:00,67.3,64.3,29.89,West,260,0.0,1.0,90,0.02,,SKC,0.38,VWS V14.01,2013-06-18 12:21:00,
2013-06-18 07:22:00,67.3,64.3,29.89,West,260,0.0,1.0,90,0.02,,SKC,0.38,VWS V14.01,2013-06-18 12:22:00,
2013-06-18 07:23:00,67.3,64.3,29.89,West,260,0.0,1.0,90,0.02,,SKC,0.38,VWS V14.01,2013-06-18 12:23:00,
2013-06-18 07:24:00,67.3,64.3,29.89,West,260,0.0,0.0,90,0.02,,SKC,0.38,VWS V14.01,2013-06-18 12:24:00,
2013-06-18 07:25:00,67.3,64.3,29.89,West,260,0.0,0.0,90,0.01,,SKC,0.38,VWS V14.01,2013-06-18 12:25:00,
2013-06-18 07:26:00,67.3,64.3,29.89,West,260,0.0,2.0,90,0.01,,SKC,0.38,VWS V14.01,2013-06-18 12:26:00,
2013-06-18 07:27:00,67.3,64.3,29.89,West,260,0.0,2.0,90,0.01,,SKC,0.38,VWS V14.01,2013-06-18 12:27:00,
2013-06-18 07:28:00,67.3,64.3,29.89,West,260,0.0,0.0,90,0.01,,SKC,0.38,VWS V14.01,2013-06-18 12:28:00,
2013-06-18 07:29:00,67.3,64.3,29.89,West,260,0.0,0.0,90,0.01,,SKC,0.38,VWS V14.01,2013-06-18 12:29:00,
2013-06-18 07:30:00,67.2,64.2,29.89,NW,325,0.0,2.0,90,0.01,,SKC,0.38,VWS V14.01,2013-06-18 12:30:00,
2013-06-18 07:31:00,67.2,64.2,29.89,NW,325,0.0,0.0,90,0.01,,SKC,0.38,VWS V14.01,2013-06-18 12:31:00,
2013-06-18 07:32:00,67.2,64.2,29.89,NW,325,0.0,0.0,90,0.01,,SKC,0.38,VWS V14.01,2013-06-18 12:32:00,
2013-06-18 07:33:00,67.2,64.2,29.89,NW,325,1.0,1.0,90,0.00,,SKC,0.38,VWS V14.01,2013-06-18 12:33:00,
2013-06-18 07:34:00,67.2,64.2,29.89,NW,325,0.0,1.0,90,0.00,,SKC,0.38,VWS V14.01,2013-06-18 12:34:00,
2013-06-18 07:35:00,67.2,64.2,29.89,NW,325,0.0,1.0,90,0.00,,SKC,0.38,VWS V14.01,2013-06-18 12:35:00,
2013-06-18 07:36:00,67.2,64.2,29.89,NW,325,0.0,0.0,90,0.00,,SKC,0.38,VWS V14.01,2013-06-18 12:36:00,
2013-06-18 07:37:00,67.2,64.2,29.89,NW,325,0.0,0.0,90,0.00,,SKC,0.38,VWS V14.01,2013-06-18 12:37:00,
2013-06-18 07:38:00,67.2,64.2,29.89,NNE,14,2.0,4.0,90,0.00,,SKC,0.38,VWS V14.01,2013-06-18 12:38:00,
2013-06-18 07:39:00,67.2,64.2,29.89,NNW,344,1.0,4.0,90,0.00,,SKC,0.38,VWS V14.01,2013-06-18 12:39:00,
2013-06-18 07:40:00,67.2,64.2,29.89,NNW,347,1.0,3.0,90,0.00,,SKC,0.38,VWS V14.01,2013-06-18 12:40:00,
2013-06-18 07:41:00,67.2,64.2,29.89,North,355,1.0,5.0,90,0.00,,SKC,0.38,VWS V14.01,2013-06-18 12:41:00,
2013-06-18 07:42:00,67.2,64.2,29.89,North,355,1.0,5.0,90,0.00,,SKC,0.38,VWS V14.01,2013-06-18 12:42:00,
2013-06-18 07:43:00,67.2,64.2,29.89,NNW,342,0.0,2.0,90,0.00,,SKC,0.38,VWS V14.01,2013-06-18 12:43:00,
2013-06-18 07:44:00,67.2,64.2,29.89,WNW,298,0.0,3.0,90,0.00,,SKC,0.38,VWS V14.01,2013-06-18 12:44:00,
2013-06-18 07:45:00,67.2,64.2,29.89,WNW,303,0.0,4.0,90,0.00,,SKC,0.38,VWS V14.01,2013-06-18 12:45:00,
2013-06-18 07:46:00,67.2,64.2,29.89,WNW,301,0.0,2.0,90,0.00,,SKC,0.38,VWS V14.01,2013-06-18 12:46:00,
2013-06-18 07:47:00,67.2,64.2,29.89,WNW,301,0.0,2.0,90,0.00,,SKC,0.38,VWS V14.01,2013-06-18 12:47:00,
2013-06-18 07:48:00,67.2,64.2,29.89,NW,306,3.0,4.0,90,0.00,,SKC,0.38,VWS V14.01,2013-06-18 12:48:00,
2013-06-18 07:49:00,67.1,64.1,29.89,NW,306,0.0,3.0,90,0.00,,SKC,0.38,VWS V14.01,2013-06-18 12:49:00,
2013-06-18 07:50:00,67.2,64.2,29.90,NW,311,0.0,4.0,90,0.00,,SKC,0.38,VWS V14.01,2013-06-18 12:50:00,
2013-06-18 07:51:00,67.2,64.2,29.90,NW,312,0.0,2.0,90,0.00,,SKC,0.38,VWS V14.01,2013-06-18 12:51:00,
2013-06-18 07:52:00,67.2,64.2,29.90,NW,312,0.0,2.0,90,0.00,,SKC,0.38,VWS V14.01,2013-06-18 12:52:00,
2013-06-18 07:53:00,67.2,64.2,29.90,NNW,327,3.0,5.0,90,0.00,,SKC,0.38,VWS V14.01,2013-06-18 12:53:00,
2013-06-18 07:54:00,67.2,64.2,29.90,NNW,327,0.0,3.0,90,0.00,,SKC,0.38,VWS V14.01,2013-06-18 12:54:00,
2013-06-18 07:55:00,67.2,64.2,29.90,NW,326,0.0,1.0,90,0.00,,SKC,0.38,VWS V14.01,2013-06-18 12:55:00,
2013-06-18 07:56:00,67.2,64.2,29.90,NNW,329,1.0,3.0,90,0.00,,SKC,0.38,VWS V14.01,2013-06-18 12:56:00,
2013-06-18 07:57:00,67.2,64.2,29.90,NNW,329,1.0,3.0,90,0.00,,SKC,0.38,VWS V14.01,2013-06-18 12:57:00,
2013-06-18 07:58:00,67.2,64.2,29.90,West,281,2.0,3.0,90,0.00,,SKC,0.38,VWS V14.01,2013-06-18 12:58:00,
2013-06-18 07:59:00,67.2,64.2,29.90,NW,324,2.0,3.0,90,0.00,,SKC,0.38,VWS V14.01,2013-06-18 12:59:00,
2013-06-18 08:00:00,67.2,64.2,29.90,NW,310,1.0,3.0,90,0.00,,SKC,0.38,VWS V14.01,2013-06-18 13:00:00,
2013-06-18 08:01:00,67.2,64.2,29.90,NW,315,0.0,6.0,90,0.00,,SKC,0.38,VWS V14.01,2013-06-18 13:01:00,
2013-06-18 08:02:00,67.2,64.2,29.90,NW,315,0.0,6.0,90,0.00,,SKC,0.38,VWS V14.01,2013-06-18 13:02:00,
2013-06-18 08:03:00,67.2,64.2,29.90,NW,304,0.0,1.0,90,0.00,,SKC,0.38,VWS V14.01,2013-06-18 13:03:00,
2013-06-18 08:04:00,67.2,64.2,29.90,NW,306,0.0,1.0,90,0.00,,SKC,0.38,VWS V14.01,2013-06-18 13:04:00,
2013-06-18 08:05:00,67.3,64.3,29.90,NW,306,0.0,0.0,90,0.00,,SKC,0.38,VWS V14.01,2013-06-18 13:05:00,
2013-06-18 08:06:00,67.3,64.3,29.90,NW,306,0.0,0.0,90,0.00,,SKC,0.38,VWS V14.01,2013-06-18 13:06:00,
2013-06-18 08:07:00,67.3,64.3,29.90,NW,306,0.0,0.0,90,0.00,,SKC,0.38,VWS V14.01,2013-06-18 13:07:00,
2013-06-18 08:08:00,67.4,64.4,29.90,WNW,288,2.0,2.0,90,0.00,,SKC,0.38,VWS V14.01,2013-06-18 13:08:00,
2013-06-18 08:09:00,67.5,64.5,29.91,NW,304,0.0,6.0,90,0.00,,SKC,0.38,VWS V14.01,2013-06-18 13:09:00,
2013-06-18 08:10:00,67.5,64.5,29.91,NW,304,0.0,0.0,90,0.00,,SKC,0.38,VWS V14.01,2013-06-18 13:10:00,
2013-06-18 08:11:00,67.5,64.5,29.91,NW,309,1.0,2.0,90,0.00,,SKC,0.38,VWS V14.01,2013-06-18 13:11:00,
2013-06-18 08:12:00,67.5,64.5,29.91,NW,309,1.0,2.0,90,0.00,,SKC,0.38,VWS V14.01,2013-06-18 13:12:00,
2013-06-18 08:13:00,67.6,64.6,29.91,North,355,2.0,3.0,90,0.00,,SKC,0.38,VWS V14.01,2013-06-18 13:13:00,
2013-06-18 08:14:00,67.6,64.6,29.91,North,351,3.0,3.0,90,0.00,,SKC,0.38,VWS V14.01,2013-06-18 13:14:00,
2013-06-18 08:15:00,67.6,64.6,29.91,NNW,348,1.0,4.0,90,0.00,,SKC,0.38,VWS V14.01,2013-06-18 13:15:00,
2013-06-18 08:16:00,67.6,64.6,29.91,NW,321,1.0,2.0,90,0.00,,SKC,0.38,VWS V14.01,2013-06-18 13:16:00,
2013-06-18 08:17:00,67.6,64.6,29.91,NW,321,1.0,2.0,90,0.00,,SKC,0.38,VWS V14.01,2013-06-18 13:17:00,
2013-06-18 08:18:00,67.7,64.7,29.91,NNW,337,2.0,3.0,90,0.00,,SKC,0.38,VWS V14.01,2013-06-18 13:18:00,
2013-06-18 08:19:00,67.7,64.7,29.91,NNW,336,1.0,2.0,90,0.00,,SKC,0.38,VWS V14.01,2013-06-18 13:19:00,
2013-06-18 08:20:00,67.7,64.7,29.91,North,355,3.0,6.0,90,0.00,,SKC,0.38,VWS V14.01,2013-06-18 13:20:00,
2013-06-18 08:21:00,67.6,64.6,29.91,NNW,346,0.0,6.0,90,0.00,,SKC,0.38,VWS V14.01,2013-06-18 13:21:00,
2013-06-18 08:22:00,67.6,64.6,29.91,NNW,346,0.0,6.0,90,0.00,,SKC,0.38,VWS V14.01,2013-06-18 13:22:00,
2013-06-18 08:23:00,67.6,64.6,29.91,NW,313,1.0,5.0,90,0.00,,SKC,0.38,VWS V14.01,2013-06-18 13:23:00,
2013-06-18 08:24:00,67.7,64.7,29.91,NW,307,2.0,2.0,90,0.00,,SKC,0.38,VWS V14.01,2013-06-18 13:24:00,
2013-06-18 08:25:00,67.7,64.7,29.91,NNW,340,2.0,4.0,90,0.00,,SKC,0.38,VWS V14.01,2013-06-18 13:25:00,
2013-06-18 08:26:00,67.7,64.7,29.91,NNW,342,3.0,3.0,90,0.00,,SKC,0.38,VWS V14.01,2013-06-18 13:26:00,
2013-06-18 08:27:00,67.7,64.7,29.91,NNW,340,2.0,3.0,90,0.00,,SKC,0.38,VWS V14.01,2013-06-18 13:27:00,
2013-06-18 08:28:00,67.7,64.7,29.91,NNW,344,1.0,2.0,90,0.00,,SKC,0.38,VWS V14.01,2013-06-18 13:28:00,
2013-06-18 08:29:00,67.8,64.8,29.91,WNW,298,4.0,4.0,90,0.00,,SKC,0.38,VWS V14.01,2013-06-18 13:29:00,
2013-06-18 08:30:00,67.8,64.8,29.91,NW,316,0.0,4.0,90,0.00,,SKC,0.38,VWS V14.01,2013-06-18 13:30:00,
2013-06-18 08:31:00,67.9,64.9,29.91,NW,321,3.0,3.0,90,0.00,,SKC,0.38,VWS V14.01,2013-06-18 13:31:00,
2013-06-18 08:32:00,67.9,64.9,29.91,NW,321,3.0,3.0,90,0.00,,SKC,0.38,VWS V14.01,2013-06-18 13:32:00,
2013-06-18 08:33:00,68.0,65.0,29.91,WNW,302,2.0,3.0,90,0.00,,SKC,0.38,VWS V14.01,2013-06-18 13:33:00,
2013-06-18 08:34:00,68.0,65.0,29.91,North,355,0.0,6.0,90,0.00,,SKC,0.38,VWS V14.01,2013-06-18 13:34:00,
2013-06-18 08:35:00,68.1,65.1,29.91,NW,304,2.0,5.0,90,0.00,,SKC,0.38,VWS V14.01,2013-06-18 13:35:00,
2013-06-18 08:36:00,68.1,65.1,29.91,NW,304,0.0,2.0,90,0.00,,SKC,0.38,VWS V14.01,2013-06-18 13:36:00,
2013-06-18 08:37:00,68.1,65.1,29.91,NW,304,0.0,2.0,90,0.00,,SKC,0.38,VWS V14.01,2013-06-18 13:37:00,
2013-06-18 08:38:00,68.2,65.2,29.91,NW,304,0.0,2.0,90,0.00,,SKC,0.38,VWS V14.01,2013-06-18 13:38:00,
2013-06-18 08:39:00,68.3,65.3,29.91,NW,306,0.0,2.0,90,0.00,,SKC,0.38,VWS V14.01,2013-06-18 13:39:00,
2013-06-18 08:40:00,68.4,65.4,29.91,NNW,333,0.0,3.0,90,0.00,,SKC,0.38,VWS V14.01,2013-06-18 13:40:00,
2013-06-18 08:41:00,68.4,65.4,29.91,North,349,1.0,4.0,90,0.00,,SKC,0.38,VWS V14.01,2013-06-18 13:41:00,
2013-06-18 08:42:00,68.4,65.4,29.91,North,349,1.0,4.0,90,0.00,,SKC,0.38,VWS V14.01,2013-06-18 13:42:00,
2013-06-18 08:43:00,68.4,65.4,29.91,North,5,2.0,3.0,90,0.00,,SKC,0.38,VWS V14.01,2013-06-18 13:43:00,
2013-06-18 08:44:00,68.3,65.3,29.91,North,360,2.0,2.0,90,0.00,,SKC,0.38,VWS V14.01,2013-06-18 13:44:00,
2013-06-18 08:45:00,68.3,65.3,29.91,North,350,0.0,2.0,90,0.00,,SKC,0.38,VWS V14.01,2013-06-18 13:45:00,
2013-06-18 08:46:00,68.4,65.4,29.91,North,350,0.0,1.0,90,0.00,,SKC,0.38,VWS V14.01,2013-06-18 13:46:00,
2013-06-18 08:47:00,68.4,65.4,29.91,North,350,0.0,1.0,90,0.00,,SKC,0.38,VWS V14.01,2013-06-18 13:47:00,
2013-06-18 08:48:00,68.6,65.6,29.91,North,355,0.0,2.0,90,0.00,,SKC,0.38,VWS V14.01,2013-06-18 13:48:00,
2013-06-18 08:49:00,68.8,65.8,29.91,North,355,0.0,1.0,90,0.00,,SKC,0.38,VWS V14.01,2013-06-18 13:49:00,
2013-06-18 08:50:00,68.9,65.8,29.91,North,355,0.0,0.0,90,0.00,,SKC,0.38,VWS V14.01,2013-06-18 13:50:00,
2013-06-18 08:51:00,69.0,65.9,29.91,North,355,0.0,0.0,90,0.00,,SKC,0.38,VWS V14.01,2013-06-18 13:51:00,
2013-06-18 08:52:00,69.0,65.9,29.91,North,355,0.0,0.0,90,0.00,,SKC,0.38,VWS V14.01,2013-06-18 13:52:00,
2013-06-18 08:53:00,69.2,66.2,29.91,North,355,0.0,1.0,90,0.00,,SKC,0.38,VWS V14.01,2013-06-18 13:53:00,
2013-06-18 08:54:00,69.2,66.2,29.91,North,355,1.0,1.0,90,0.00,,SKC,0.38,VWS V14.01,2013-06-18 13:54:00,
2013-06-18 08:55:00,69.3,66.2,29.91,North,355,0.0,2.0,90,0.00,,SKC,0.38,VWS V14.01,2013-06-18 13:55:00,
2013-06-18 08:56:00,69.3,66.2,29.91,North,5,3.0,3.0,90,0.00,,SKC,0.38,VWS V14.01,2013-06-18 13:56:00,
2013-06-18 08:57:00,69.3,66.2,29.91,North,5,3.0,3.0,90,0.00,,SKC,0.38,VWS V14.01,2013-06-18 13:57:00,
2013-06-18 08:58:00,69.3,66.2,29.91,NNE,13,0.0,1.0,90,0.00,,SKC,0.38,VWS V14.01,2013-06-18 13:58:00,
2013-06-18 08:59:00,69.3,66.2,29.91,NNE,13,0.0,0.0,90,0.00,,SKC,0.38,VWS V14.01,2013-06-18 13:59:00,
2013-06-18 09:00:00,69.3,66.2,29.91,NNE,17,1.0,1.0,90,0.00,,SKC,0.38,VWS V14.01,2013-06-18 14:00:00,
2013-06-18 09:01:00,69.3,66.2,29.91,NNE,17,0.0,2.0,90,0.00,,SKC,0.38,VWS V14.01,2013-06-18 14:01:00,
2013-06-18 09:02:00,69.3,66.2,29.91,NNE,17,0.0,2.0,90,0.00,,SKC,0.38,VWS V14.01,2013-06-18 14:02:00,
2013-06-18 09:03:00,69.4,66.3,29.91,NNE,17,0.0,0.0,90,0.00,,SKC,0.38,VWS V14.01,2013-06-18 14:03:00,
2013-06-18 09:04:00,69.4,66.3,29.91,NNE,17,1.0,1.0,90,0.00,,SKC,0.38,VWS V14.01,2013-06-18 14:04:00,
2013-06-18 09:05:00,69.5,66.4,29.91,NNE,21,1.0,1.0,90,0.00,,SKC,0.38,VWS V14.01,2013-06-18 14:05:00,
2013-06-18 09:06:00,69.6,66.5,29.91,NNE,21,0.0,1.0,90,0.00,,SKC,0.38,VWS V14.01,2013-06-18 14:06:00,
2013-06-18 09:07:00,69.6,66.5,29.91,NNE,21,0.0,1.0,90,0.00,,SKC,0.38,VWS V14.01,2013-06-18 14:07:00,
2013-06-18 09:08:00,69.7,66.6,29.91,NNE,21,0.0,0.0,90,0.00,,SKC,0.38,VWS V14.01,2013-06-18 14:08:00,
2013-06-18 09:09:00,69.7,66.6,29.91,East,83,2.0,3.0,90,0.00,,SKC,0.38,VWS V14.01,2013-06-18 14:09:00,
2013-06-18 09:10:00,69.7,66.6,29.91,East,83,1.0,2.0,90,0.00,,SKC,0.38,VWS V14.01,2013-06-18 14:10:00,
2013-06-18 09:11:00,69.7,66.6,29.92,East,83,0.0,1.0,90,0.00,,SKC,0.38,VWS V14.01,2013-06-18 14:11:00,
2013-06-18 09:12:00,69.7,66.6,29.92,East,83,0.0,1.0,90,0.00,,SKC,0.38,VWS V14.01,2013-06-18 14:12:00,
2013-06-18 09:13:00,69.6,66.5,29.92,East,83,0.0,2.0,90,0.00,,SKC,0.38,VWS V14.01,2013-06-18 14:13:00,
2013-06-18 09:14:00,69.6,66.5,29.92,East,82,0.0,0.0,90,0.00,,SKC,0.38,VWS V14.01,2013-06-18 14:14:00,
2013-06-18 09:15:00,69.6,66.5,29.92,East,82,0.0,0.0,90,0.00,,SKC,0.38,VWS V14.01,2013-06-18 14:15:00,
2013-06-18 09:16:00,69.7,66.6,29.92,East,82,0.0,0.0,90,0.00,,SKC,0.38,VWS V14.01,2013-06-18 14:16:00,
2013-06-18 09:17:00,69.7,66.6,29.92,East,82,0.0,0.0,90,0.00,,SKC,0.38,VWS V14.01,2013-06-18 14:17:00,
2013-06-18 09:18:00,69.9,66.8,29.92,East,82,0.0,0.0,90,0.00,,SKC,0.38,VWS V14.01,2013-06-18 14:18:00,
2013-06-18 09:19:00,70.1,67.0,29.92,East,82,0.0,1.0,90,0.00,,SKC,0.38,VWS V14.01,2013-06-18 14:19:00,
2013-06-18 09:20:00,70.2,67.1,29.92,East,83,0.0,0.0,90,0.00,,SKC,0.38,VWS V14.01,2013-06-18 14:20:00,
2013-06-18 09:21:00,70.3,67.2,29.92,SE,142,2.0,2.0,90,0.00,,SKC,0.38,VWS V14.01,2013-06-18 14:21:00,
2013-06-18 09:22:00,70.3,67.2,29.92,SE,142,2.0,2.0,90,0.00,,SKC,0.38,VWS V14.01,2013-06-18 14:22:00,
2013-06-18 09:23:00,70.3,67.2,29.92,SE,142,0.0,2.0,90,0.00,,SKC,0.38,VWS V14.01,2013-06-18 14:23:00,
2013-06-18 09:24:00,70.2,67.1,29.92,SE,142,0.0,1.0,90,0.00,,SKC,0.38,VWS V14.01,2013-06-18 14:24:00,
2013-06-18 09:25:00,70.2,67.1,29.92,SE,125,0.0,3.0,90,0.00,,SKC,0.38,VWS V14.01,2013-06-18 14:25:00,
2013-06-18 09:26:00,70.2,67.1,29.92,ESE,123,0.0,2.0,90,0.00,,SKC,0.38,VWS V14.01,2013-06-18 14:26:00,
2013-06-18 09:27:00,70.2,67.1,29.92,ESE,123,0.0,2.0,90,0.00,,SKC,0.38,VWS V14.01,2013-06-18 14:27:00,
2013-06-18 09:28:00,70.3,67.2,29.92,SSE,148,5.0,5.0,90,0.00,,SKC,0.38,VWS V14.01,2013-06-18 14:28:00,
2013-06-18 09:29:00,70.4,67.3,29.92,ESE,104,2.0,5.0,90,0.00,,SKC,0.38,VWS V14.01,2013-06-18 14:29:00,
2013-06-18 09:30:00,70.4,67.3,29.92,ESE,107,2.0,3.0,90,0.00,,SKC,0.38,VWS V14.01,2013-06-18 14:30:00,
2013-06-18 09:31:00,70.6,67.5,29.92,SE,141,5.0,5.0,90,0.00,,SKC,0.38,VWS V14.01,2013-06-18 14:31:00,
2013-06-18 09:32:00,70.6,67.5,29.92,SE,141,4.0,4.0,90,0.00,,SKC,0.38,VWS V14.01,2013-06-18 14:32:00,
2013-06-18 09:33:00,70.9,67.8,29.92,ESE,122,2.0,3.0,90,0.00,,SKC,0.38,VWS V14.01,2013-06-18 14:33:00,
2013-06-18 09:34:00,71.1,68.0,29.92,ESE,123,1.0,2.0,90,0.00,,SKC,0.38,VWS V14.01,2013-06-18 14:34:00,
2013-06-18 09:35:00,71.2,68.1,29.92,SE,140,3.0,4.0,90,0.00,,SKC,0.38,VWS V14.01,2013-06-18 14:35:00,
2013-06-18 09:36:00,71.2,68.1,29.92,SSE,149,3.0,4.0,90,0.00,,SKC,0.38,VWS V14.01,2013-06-18 14:36:00,
2013-06-18 09:37:00,71.2,68.1,29.92,SSE,149,2.0,4.0,90,0.00,,SKC,0.38,VWS V14.01,2013-06-18 14:37:00,
2013-06-18 09:38:00,71.2,68.1,29.91,SSE,165,2.0,3.0,90,0.00,,SKC,0.38,VWS V14.01,2013-06-18 14:38:00,
2013-06-18 09:39:00,71.2,68.1,29.91,SSE,161,6.0,7.0,90,0.00,,SKC,0.38,VWS V14.01,2013-06-18 14:39:00,
2013-06-18 09:40:00,71.1,68.0,29.91,SSE,163,4.0,6.0,90,0.00,,SKC,0.38,VWS V14.01,2013-06-18 14:40:00,
2013-06-18 09:41:00,71.0,67.6,29.91,SSE,155,2.0,4.0,89,0.00,,SKC,0.38,VWS V14.01,2013-06-18 14:41:00,
2013-06-18 09:42:00,71.0,67.6,29.91,SSE,155,2.0,4.0,89,0.00,,SKC,0.38,VWS V14.01,2013-06-18 14:42:00,
2013-06-18 09:43:00,71.3,67.9,29.92,SSE,151,1.0,4.0,89,0.00,,SKC,0.38,VWS V14.01,2013-06-18 14:43:00,
2013-06-18 09:44:00,71.5,68.1,29.92,SSE,150,3.0,4.0,89,0.00,,SKC,0.38,VWS V14.01,2013-06-18 14:44:00,
2013-06-18 09:45:00,71.6,68.2,29.92,ESE,110,0.0,5.0,89,0.00,,SKC,0.38,VWS V14.01,2013-06-18 14:45:00,
2013-06-18 09:46:00,71.8,68.4,29.92,SE,128,1.0,3.0,89,0.00,,SKC,0.38,VWS V14.01,2013-06-18 14:46:00,
2013-06-18 09:47:00,71.8,68.4,29.92,SE,127,2.0,3.0,89,0.00,,SKC,0.38,VWS V14.01,2013-06-18 14:47:00,
2013-06-18 09:48:00,72.1,68.7,29.92,SE,129,0.0,1.0,89,0.00,,SKC,0.38,VWS V14.01,2013-06-18 14:48:00,
2013-06-18 09:49:00,72.3,68.6,29.92,SE,146,1.0,3.0,88,0.00,,SKC,0.38,VWS V14.01,2013-06-18 14:49:00,
2013-06-18 09:50:00,72.4,68.7,29.92,ESE,116,3.0,5.0,88,0.00,,SKC,0.38,VWS V14.01,2013-06-18 14:50:00,
2013-06-18 09:51:00,72.5,68.8,29.92,East,88,2.0,3.0,88,0.00,,SKC,0.38,VWS V14.01,2013-06-18 14:51:00,
2013-06-18 09:52:00,72.5,68.8,29.92,ESE,115,0.0,3.0,88,0.00,,SKC,0.38,VWS V14.01,2013-06-18 14:52:00,
2013-06-18 09:53:00,72.6,68.8,29.92,SE,128,5.0,5.0,88,0.00,,SKC,0.38,VWS V14.01,2013-06-18 14:53:00,
2013-06-18 09:54:00,72.7,68.6,29.92,SE,141,4.0,5.0,87,0.00,,SKC,0.38,VWS V14.01,2013-06-18 14:54:00,
2013-06-18 09:55:00,72.7,68.6,29.92,East,90,2.0,6.0,87,0.00,,SKC,0.38,VWS V14.01,2013-06-18 14:55:00,
2013-06-18 09:56:00,72.8,68.7,29.92,SE,141,4.0,5.0,87,0.00,,SKC,0.38,VWS V14.01,2013-06-18 14:56:00,
2013-06-18 09:57:00,72.8,68.7,29.92,SE,141,5.0,5.0,87,0.00,,SKC,0.38,VWS V14.01,2013-06-18 14:57:00,
2013-06-18 09:58:00,72.9,68.5,29.92,ESE,121,1.0,5.0,86,0.00,,SKC,0.38,VWS V14.01,2013-06-18 14:58:00,
2013-06-18 09:59:00,73.0,68.6,29.92,SE,146,4.0,4.0,86,0.00,,SKC,0.38,VWS V14.01,2013-06-18 14:59:00,
2013-06-18 10:00:00,73.0,68.2,29.92,SE,130,1.0,5.0,85,0.00,,SKC,0.38,VWS V14.01,2013-06-18 15:00:00,
2013-06-18 10:01:00,73.0,68.2,29.92,SE,132,1.0,3.0,85,0.00,,SKC,0.38,VWS V14.01,2013-06-18 15:01:00,
2013-06-18 10:02:00,73.0,68.2,29.92,SE,132,1.0,3.0,85,0.00,,SKC,0.38,VWS V14.01,2013-06-18 15:02:00,
2013-06-18 10:03:00,73.0,68.2,29.92,ESE,111,0.0,3.0,85,0.00,,SKC,0.38,VWS V14.01,2013-06-18 15:03:00,
2013-06-18 10:04:00,73.1,68.3,29.92,ESE,115,3.0,3.0,85,0.00,,SKC,0.38,VWS V14.01,2013-06-18 15:04:00,
2013-06-18 10:05:00,73.2,68.4,29.92,SE,132,3.0,6.0,85,0.00,,SKC,0.38,VWS V14.01,2013-06-18 15:05:00,
2013-06-18 10:06:00,73.2,68.4,29.92,East,101,3.0,4.0,85,0.00,,SKC,0.38,VWS V14.01,2013-06-18 15:06:00,
2013-06-18 10:07:00,73.2,68.4,29.92,East,101,3.0,3.0,85,0.00,,SKC,0.38,VWS V14.01,2013-06-18 15:07:00,
2013-06-18 10:08:00,73.3,68.5,29.93,ENE,74,1.0,3.0,85,0.00,,SKC,0.38,VWS V14.01,2013-06-18 15:08:00,
2013-06-18 10:09:00,73.3,68.2,29.93,ENE,76,0.0,2.0,84,0.00,,SKC,0.38,VWS V14.01,2013-06-18 15:09:00,
2013-06-18 10:10:00,73.5,68.7,29.93,SE,132,5.0,5.0,85,0.00,,SKC,0.38,VWS V14.01,2013-06-18 15:10:00,
2013-06-18 10:11:00,73.5,68.4,29.93,ENE,77,4.0,5.0,84,0.00,,SKC,0.38,VWS V14.01,2013-06-18 15:11:00,
2013-06-18 10:12:00,73.5,68.4,29.93,ENE,77,4.0,5.0,84,0.00,,SKC,0.38,VWS V14.01,2013-06-18 15:12:00,
2013-06-18 10:13:00,73.7,68.2,29.93,ENE,78,4.0,5.0,83,0.00,,SKC,0.38,VWS V14.01,2013-06-18 15:13:00,
2013-06-18 10:14:00,73.7,68.2,29.93,ENE,74,1.0,5.0,83,0.00,,SKC,0.38,VWS V14.01,2013-06-18 15:14:00,
2013-06-18 10:15:00,73.7,67.9,29.93,ENE,74,0.0,1.0,82,0.00,,SKC,0.38,VWS V14.01,2013-06-18 15:15:00,
2013-06-18 10:16:00,73.8,68.3,29.93,ENE,74,1.0,1.0,83,0.00,,SKC,0.38,VWS V14.01,2013-06-18 15:16:00,
2013-06-18 10:17:00,73.8,68.3,29.93,ENE,74,1.0,1.0,83,0.00,,SKC,0.38,VWS V14.01,2013-06-18 15:17:00,
2013-06-18 10:18:00,73.9,68.4,29.93,ESE,116,4.0,4.0,83,0.00,,SKC,0.38,VWS V14.01,2013-06-18 15:18:00,
2013-06-18 10:19:00,74.0,68.5,29.93,East,94,3.0,4.0,83,0.00,,SKC,0.38,VWS V14.01,2013-06-18 15:19:00,
2013-06-18 10:20:00,74.2,68.7,29.93,ESE,105,1.0,4.0,83,0.00,,SKC,0.38,VWS V14.01,2013-06-18 15:20:00,
2013-06-18 10:21:00,74.3,68.5,29.94,ESE,105,1.0,3.0,82,0.00,,SKC,0.38,VWS V14.01,2013-06-18 15:21:00,
2013-06-18 10:22:00,74.3,68.4,29.94,ESE,105,1.0,3.0,82,0.00,,SKC,0.38,VWS V14.01,2013-06-18 15:22:00,
2013-06-18 10:23:00,74.6,68.8,29.94,ENE,61,3.0,5.0,82,0.00,,SKC,0.38,VWS V14.01,2013-06-18 15:23:00,
2013-06-18 10:24:00,74.6,68.4,29.94,NE,49,0.0,4.0,81,0.00,,SKC,0.38,VWS V14.01,2013-06-18 15:24:00,
2013-06-18 10:25:00,74.7,68.5,29.94,NE,49,0.0,0.0,81,0.00,,SKC,0.38,VWS V14.01,2013-06-18 15:25:00,
2013-06-18 10:26:00,74.8,68.6,29.94,NE,48,3.0,6.0,81,0.00,,SKC,0.38,VWS V14.01,2013-06-18 15:26:00,
2013-06-18 10:27:00,74.8,68.6,29.94,NE,48,3.0,6.0,81,0.00,,SKC,0.38,VWS V14.01,2013-06-18 15:27:00,
2013-06-18 10:28:00,75.0,68.8,29.94,NNE,30,2.0,3.0,81,0.00,,SKC,0.38,VWS V14.01,2013-06-18 15:28:00,
2013-06-18 10:29:00,75.1,68.9,29.93,North,360,1.0,4.0,81,0.00,,SKC,0.38,VWS V14.01,2013-06-18 15:29:00,
2013-06-18 10:30:00,75.1,68.9,29.93,North,360,0.0,1.0,81,0.00,,SKC,0.38,VWS V14.01,2013-06-18 15:30:00,
2013-06-18 10:31:00,75.2,69.0,29.93,NE,38,2.0,2.0,81,0.00,,SKC,0.38,VWS V14.01,2013-06-18 15:31:00,
2013-06-18 10:32:00,75.2,69.0,29.93,NE,38,2.0,2.0,81,0.00,,SKC,0.38,VWS V14.01,2013-06-18 15:32:00,
2013-06-18 10:33:00,75.3,69.1,29.93,East,79,1.0,5.0,81,0.00,,SKC,0.38,VWS V14.01,2013-06-18 15:33:00,
2013-06-18 10:34:00,75.3,69.1,29.93,East,83,2.0,4.0,81,0.00,,SKC,0.38,VWS V14.01,2013-06-18 15:34:00,
2013-06-18 10:35:00,75.3,68.7,29.93,NE,41,1.0,4.0,80,0.00,,SKC,0.38,VWS V14.01,2013-06-18 15:35:00,
2013-06-18 10:36:00,75.4,69.2,29.93,NE,46,1.0,5.0,81,0.00,,SKC,0.38,VWS V14.01,2013-06-18 15:36:00,
2013-06-18 10:37:00,75.4,69.2,29.93,NE,46,1.0,5.0,81,0.00,,SKC,0.38,VWS V14.01,2013-06-18 15:37:00,
2013-06-18 10:38:00,75.5,69.3,29.93,NE,56,0.0,5.0,81,0.00,,SKC,0.38,VWS V14.01,2013-06-18 15:38:00,
2013-06-18 10:39:00,75.6,69.0,29.93,East,100,2.0,7.0,80,0.00,,SKC,0.38,VWS V14.01,2013-06-18 15:39:00,
2013-06-18 10:40:00,75.7,69.1,29.93,ESE,103,0.0,2.0,80,0.00,,SKC,0.38,VWS V14.01,2013-06-18 15:40:00,
2013-06-18 10:41:00,75.8,69.2,29.93,ESE,117,2.0,6.0,80,0.00,,SKC,0.38,VWS V14.01,2013-06-18 15:41:00,
2013-06-18 10:42:00,75.8,69.2,29.93,ESE,117,2.0,6.0,80,0.00,,SKC,0.38,VWS V14.01,2013-06-18 15:42:00,
2013-06-18 10:43:00,76.0,69.4,29.93,ESE,103,2.0,4.0,80,0.00,,SKC,0.38,VWS V14.01,2013-06-18 15:43:00,
2013-06-18 10:44:00,76.1,69.5,29.93,NE,50,2.0,4.0,80,0.00,,SKC,0.38,VWS V14.01,2013-06-18 15:44:00,
2013-06-18 10:45:00,76.2,69.2,29.93,East,98,1.0,4.0,79,0.00,,SKC,0.38,VWS V14.01,2013-06-18 15:45:00,
2013-06-18 10:46:00,76.3,69.3,29.93,East,81,2.0,2.0,79,0.00,,SKC,0.38,VWS V14.01,2013-06-18 15:46:00,
2013-06-18 10:47:00,76.3,69.3,29.93,East,81,2.0,2.0,79,0.00,,SKC,0.38,VWS V14.01,2013-06-18 15:47:00,
2013-06-18 10:48:00,76.5,69.1,29.93,SE,137,3.0,5.0,78,0.00,,SKC,0.38,VWS V14.01,2013-06-18 15:48:00,
2013-06-18 10:49:00,76.5,68.8,29.93,SE,144,2.0,3.0,77,0.00,,SKC,0.38,VWS V14.01,2013-06-18 15:49:00,
2013-06-18 10:50:00,76.5,68.8,29.93,SSE,154,1.0,3.0,77,0.00,,SKC,0.38,VWS V14.01,2013-06-18 15:50:00,
2013-06-18 10:51:00,76.5,69.1,29.93,ESE,109,3.0,4.0,78,0.00,,SKC,0.38,VWS V14.01,2013-06-18 15:51:00,
2013-06-18 10:52:00,76.5,69.1,29.93,ESE,109,3.0,4.0,78,0.00,,SKC,0.38,VWS V14.01,2013-06-18 15:52:00,
2013-06-18 10:53:00,76.6,68.9,29.93,East,84,3.0,4.0,77,0.00,,SKC,0.38,VWS V14.01,2013-06-18 15:53:00,
2013-06-18 10:54:00,76.6,68.5,29.93,East,84,0.0,3.0,76,0.00,,SKC,0.38,VWS V14.01,2013-06-18 15:54:00,
2013-06-18 10:55:00,76.6,68.5,29.93,East,84,0.0,0.0,76,0.00,,SKC,0.38,VWS V14.01,2013-06-18 15:55:00,
2013-06-18 10:56:00,76.6,68.5,29.93,East,84,0.0,0.0,76,0.00,,SKC,0.38,VWS V14.01,2013-06-18 15:56:00,
2013-06-18 10:57:00,76.6,68.5,29.93,East,84,0.0,0.0,76,0.00,,SKC,0.38,VWS V14.01,2013-06-18 15:57:00,
2013-06-18 10:58:00,76.6,68.1,29.93,East,84,2.0,2.0,75,0.00,,SKC,0.38,VWS V14.01,2013-06-18 15:58:00,
2013-06-18 10:59:00,76.7,68.2,29.93,East,84,0.0,2.0,75,0.00,,SKC,0.38,VWS V14.01,2013-06-18 15:59:00,
2013-06-18 11:00:00,76.7,68.2,29.93,East,84,0.0,0.0,75,0.00,,SKC,0.38,VWS V14.01,2013-06-18 16:00:00,
2013-06-18 11:01:00,76.7,68.2,29.93,ENE,75,1.0,1.0,75,0.00,,SKC,0.38,VWS V14.01,2013-06-18 16:01:00,
2013-06-18 11:02:00,76.7,68.2,29.93,ENE,75,1.0,1.0,75,0.00,,SKC,0.38,VWS V14.01,2013-06-18 16:02:00,
2013-06-18 11:03:00,76.6,68.5,29.93,West,279,1.0,4.0,76,0.00,,SKC,0.38,VWS V14.01,2013-06-18 16:03:00,
2013-06-18 11:04:00,76.6,68.5,29.93,West,279,0.0,2.0,76,0.00,,SKC,0.38,VWS V14.01,2013-06-18 16:04:00,
2013-06-18 11:05:00,76.5,68.4,29.93,West,279,0.0,0.0,76,0.00,,SKC,0.38,VWS V14.01,2013-06-18 16:05:00,
2013-06-18 11:06:00,76.5,68.8,29.93,SE,142,2.0,5.0,77,0.00,,SKC,0.38,VWS V14.01,2013-06-18 16:06:00,
2013-06-18 11:07:00,76.5,68.8,29.93,SE,142,2.0,5.0,77,0.00,,SKC,0.38,VWS V14.01,2013-06-18 16:07:00,
2013-06-18 11:08:00,76.6,68.9,29.93,South,172,3.0,4.0,77,0.00,,SKC,0.38,VWS V14.01,2013-06-18 16:08:00,
2013-06-18 11:09:00,76.5,68.4,29.93,South,172,3.0,3.0,76,0.00,,SKC,0.38,VWS V14.01,2013-06-18 16:09:00,
2013-06-18 11:10:00,76.6,68.5,29.93,SSE,149,2.0,5.0,76,0.00,,SKC,0.38,VWS V14.01,2013-06-18 16:10:00,
2013-06-18 11:11:00,76.6,68.5,29.93,SSE,149,2.0,3.0,76,0.00,,SKC,0.38,VWS V14.01,2013-06-18 16:11:00,
2013-06-18 11:12:00,76.6,68.5,29.93,SSE,149,2.0,3.0,76,0.00,,SKC,0.38,VWS V14.01,2013-06-18 16:12:00,
2013-06-18 11:13:00,76.8,68.7,29.93,SSE,150,2.0,3.0,76,0.00,,SKC,0.38,VWS V14.01,2013-06-18 16:13:00,
2013-06-18 11:14:00,76.9,68.8,29.93,SSE,150,1.0,3.0,76,0.00,,SKC,0.38,VWS V14.01,2013-06-18 16:14:00,
2013-06-18 11:15:00,77.0,68.9,29.93,SSE,149,1.0,2.0,76,0.00,,SKC,0.38,VWS V14.01,2013-06-18 16:15:00,
2013-06-18 11:16:00,77.1,69.0,29.93,SSE,149,0.0,2.0,76,0.00,,SKC,0.38,VWS V14.01,2013-06-18 16:16:00,
2013-06-18 11:17:00,77.1,69.0,29.93,SSE,149,0.0,2.0,76,0.00,,SKC,0.38,VWS V14.01,2013-06-18 16:17:00,
2013-06-18 11:18:00,77.4,68.9,29.93,SSE,149,1.0,2.0,75,0.00,,SKC,0.38,VWS V14.01,2013-06-18 16:18:00,
2013-06-18 11:19:00,77.6,69.4,29.93,East,92,4.0,4.0,76,0.00,,SKC,0.38,VWS V14.01,2013-06-18 16:19:00,
2013-06-18 11:20:00,77.8,68.9,29.93,ESE,102,4.0,4.0,74,0.00,,SKC,0.38,VWS V14.01,2013-06-18 16:20:00,
2013-06-18 11:21:00,77.9,69.3,29.93,East,101,0.0,4.0,75,0.00,,SKC,0.38,VWS V14.01,2013-06-18 16:21:00,
2013-06-18 11:22:00,77.9,69.3,29.93,East,101,0.0,4.0,75,0.00,,SKC,0.38,VWS V14.01,2013-06-18 16:22:00,
2013-06-18 11:23:00,78.3,69.3,29.93,SSW,209,0.0,3.0,74,0.00,,SKC,0.38,VWS V14.01,2013-06-18 16:23:00,
2013-06-18 11:24:00,78.3,68.9,29.93,SSW,209,0.0,2.0,73,0.00,,SKC,0.38,VWS V14.01,2013-06-18 16:24:00,
2013-06-18 11:25:00,78.4,69.0,29.93,SSW,209,0.0,1.0,73,0.00,,SKC,0.38,VWS V14.01,2013-06-18 16:25:00,
2013-06-18 11:26:00,78.5,69.1,29.93,WSW,254,0.0,6.0,73,0.00,,SKC,0.38,VWS V14.01,2013-06-18 16:26:00,
2013-06-18 11:27:00,78.5,69.1,29.93,WSW,254,2.0,6.0,73,0.00,,SKC,0.38,VWS V14.01,2013-06-18 16:27:00,
2013-06-18 11:28:00,78.7,69.3,29.93,WSW,254,2.0,2.0,73,0.00,,SKC,0.38,VWS V14.01,2013-06-18 16:28:00,
2013-06-18 11:29:00,78.7,69.3,29.93,WSW,254,2.0,4.0,73,0.00,,SKC,0.38,VWS V14.01,2013-06-18 16:29:00,
2013-06-18 11:30:00,78.7,69.3,29.93,WSW,255,3.0,4.0,73,0.00,,SKC,0.38,VWS V14.01,2013-06-18 16:30:00,
2013-06-18 11:31:00,78.7,68.9,29.93,WSW,255,1.0,4.0,72,0.00,,SKC,0.38,VWS V14.01,2013-06-18 16:31:00,
2013-06-18 11:32:00,78.7,68.9,29.93,WSW,255,2.0,4.0,72,0.00,,SKC,0.38,VWS V14.01,2013-06-18 16:32:00,
2013-06-18 11:33:00,78.7,68.5,29.92,WSW,255,0.0,3.0,71,0.00,,SKC,0.38,VWS V14.01,2013-06-18 16:33:00,
2013-06-18 11:34:00,78.7,68.5,29.92,WSW,255,1.0,2.0,71,0.00,,SKC,0.38,VWS V14.01,2013-06-18 16:34:00,
2013-06-18 11:35:00,78.7,68.9,29.92,WSW,255,0.0,1.0,72,0.00,,SKC,0.38,VWS V14.01,2013-06-18 16:35:00,
2013-06-18 11:36:00,78.8,69.4,29.93,SSE,157,4.0,4.0,73,0.00,,SKC,0.38,VWS V14.01,2013-06-18 16:36:00,
2013-06-18 11:37:00,78.8,69.4,29.93,SSE,157,4.0,4.0,73,0.00,,SKC,0.38,VWS V14.01,2013-06-18 16:37:00,
2013-06-18 11:38:00,79.0,69.2,29.92,SSE,157,2.0,4.0,72,0.00,,SKC,0.38,VWS V14.01,2013-06-18 16:38:00,
2013-06-18 11:39:00,79.0,69.2,29.92,SSE,165,1.0,5.0,72,0.00,,SKC,0.38,VWS V14.01,2013-06-18 16:39:00,
2013-06-18 11:40:00,79.0,68.8,29.92,SSE,165,1.0,1.0,71,0.00,,SKC,0.38,VWS V14.01,2013-06-18 16:40:00,
2013-06-18 11:41:00,79.1,69.3,29.92,SE,146,3.0,4.0,72,0.00,,SKC,0.38,VWS V14.01,2013-06-18 16:41:00,
2013-06-18 11:42:00,79.1,69.3,29.92,SE,146,2.0,4.0,72,0.00,,SKC,0.38,VWS V14.01,2013-06-18 16:42:00,
2013-06-18 11:43:00,79.2,69.4,29.92,South,187,2.0,5.0,72,0.00,,SKC,0.38,VWS V14.01,2013-06-18 16:43:00,
2013-06-18 11:44:00,79.2,69.0,29.92,SSE,151,3.0,4.0,71,0.00,,SKC,0.38,VWS V14.01,2013-06-18 16:44:00,
2013-06-18 11:45:00,79.3,68.7,29.92,SE,133,1.0,6.0,70,0.01,,SKC,0.39,VWS V14.01,2013-06-18 16:45:00,
2013-06-18 11:46:00,79.3,68.7,29.92,SE,133,0.0,1.0,70,0.01,,SKC,0.39,VWS V14.01,2013-06-18 16:46:00,
2013-06-18 11:47:00,79.3,68.7,29.92,SE,133,0.0,1.0,70,0.01,,SKC,0.39,VWS V14.01,2013-06-18 16:47:00,
2013-06-18 11:48:00,79.3,68.7,29.92,SE,133,0.0,2.0,70,0.01,,SKC,0.39,VWS V14.01,2013-06-18 16:48:00,
2013-06-18 11:49:00,79.4,69.2,29.92,SE,133,0.0,1.0,71,0.01,,SKC,0.39,VWS V14.01,2013-06-18 16:49:00,
2013-06-18 11:50:00,79.5,69.3,29.92,ESE,107,1.0,3.0,71,0.01,,SKC,0.39,VWS V14.01,2013-06-18 16:50:00,
2013-06-18 11:51:00,79.5,68.9,29.92,SSE,163,5.0,6.0,70,0.01,,SKC,0.39,VWS V14.01,2013-06-18 16:51:00,
2013-06-18 11:52:00,79.5,68.9,29.92,SSE,163,5.0,6.0,70,0.01,,SKC,0.39,VWS V14.01,2013-06-18 16:52:00,
2013-06-18 11:53:00,79.6,69.4,29.92,SSE,155,4.0,4.0,71,0.01,,SKC,0.39,VWS V14.01,2013-06-18 16:53:00,
2013-06-18 11:54:00,79.6,68.5,29.92,SE,146,1.0,4.0,69,0.01,,SKC,0.39,VWS V14.01,2013-06-18 16:54:00,
2013-06-18 11:55:00,79.6,68.5,29.92,SE,130,0.0,9.0,69,0.01,,SKC,0.39,VWS V14.01,2013-06-18 16:55:00,
2013-06-18 11:56:00,79.6,68.1,29.92,North,11,4.0,4.0,68,0.01,,SKC,0.39,VWS V14.01,2013-06-18 16:56:00,
2013-06-18 11:57:00,79.6,68.1,29.92,North,11,4.0,4.0,68,0.01,,SKC,0.39,VWS V14.01,2013-06-18 16:57:00,
2013-06-18 11:58:00,79.7,68.6,29.92,SSE,163,4.0,8.0,69,0.01,,SKC,0.39,VWS V14.01,2013-06-18 16:58:00,
2013-06-18 11:59:00,79.7,68.2,29.92,SE,145,2.0,4.0,68,0.01,,SKC,0.39,VWS V14.01,2013-06-18 16:59:00,
2013-06-18 12:00:00,79.7,68.6,29.92,SE,140,0.0,2.0,69,0.01,,SKC,0.39,VWS V14.01,2013-06-18 17:00:00,
2013-06-18 12:01:00,79.7,68.6,29.92,ESE,116,1.0,3.0,69,0.01,,SKC,0.39,VWS V14.01,2013-06-18 17:01:00,
2013-06-18 12:02:00,79.7,68.6,29.92,ESE,116,1.0,3.0,69,0.01,,SKC,0.39,VWS V14.01,2013-06-18 17:02:00,
2013-06-18 12:03:00,80.0,69.3,29.91,East,90,2.0,3.0,70,0.01,,SKC,0.39,VWS V14.01,2013-06-18 17:03:00,
2013-06-18 12:04:00,80.1,68.6,29.91,East,91,0.0,2.0,68,0.01,,SKC,0.39,VWS V14.01,2013-06-18 17:04:00,
2013-06-18 12:05:00,80.2,69.1,29.91,SE,132,4.0,6.0,69,0.01,,SKC,0.39,VWS V14.01,2013-06-18 17:05:00,
2013-06-18 12:06:00,80.2,68.3,29.91,East,94,0.0,5.0,67,0.01,,SKC,0.39,VWS V14.01,2013-06-18 17:06:00,
2013-06-18 12:07:00,80.2,68.3,29.91,East,94,0.0,5.0,67,0.01,,SKC,0.39,VWS V14.01,2013-06-18 17:07:00,
2013-06-18 12:08:00,80.2,67.8,29.92,East,82,0.0,2.0,66,0.01,,SKC,0.39,VWS V14.01,2013-06-18 17:08:00,
2013-06-18 12:09:00,80.3,68.8,29.92,East,89,2.0,2.0,68,0.01,,SKC,0.39,VWS V14.01,2013-06-18 17:09:00,
2013-06-18 12:10:00,80.3,68.3,29.92,ESE,102,3.0,4.0,67,0.01,,SKC,0.39,VWS V14.01,2013-06-18 17:10:00,
2013-06-18 12:11:00,80.3,67.9,29.92,SSE,153,2.0,4.0,66,0.01,,SKC,0.39,VWS V14.01,2013-06-18 17:11:00,
2013-06-18 12:12:00,80.3,67.9,29.92,SSE,153,2.0,4.0,66,0.01,,SKC,0.39,VWS V14.01,2013-06-18 17:12:00,
2013-06-18 12:13:00,80.4,68.0,29.91,SE,130,1.0,5.0,66,0.01,,SKC,0.39,VWS V14.01,2013-06-18 17:13:00,
2013-06-18 12:14:00,80.6,67.8,29.91,SSW,193,9.0,12.0,65,0.01,,SKC,0.39,VWS V14.01,2013-06-18 17:14:00,
2013-06-18 12:15:00,80.7,67.8,29.91,SSE,167,3.0,11.0,65,0.01,,SKC,0.39,VWS V14.01,2013-06-18 17:15:00,
2013-06-18 12:16:00,80.9,68.5,29.91,South,184,7.0,11.0,66,0.01,,SKC,0.39,VWS V14.01,2013-06-18 17:16:00,
2013-06-18 12:17:00,80.9,68.5,29.91,South,184,7.0,11.0,66,0.01,,SKC,0.39,VWS V14.01,2013-06-18 17:17:00,
2013-06-18 12:18:00,81.0,67.2,29.91,SSE,165,3.0,6.0,63,0.01,,SKC,0.39,VWS V14.01,2013-06-18 17:18:00,
2013-06-18 12:19:00,81.1,67.8,29.91,SSW,201,9.0,9.0,64,0.01,,SKC,0.39,VWS V14.01,2013-06-18 17:19:00,
2013-06-18 12:20:00,81.1,67.8,29.91,SSE,167,3.0,10.0,64,0.01,,SKC,0.39,VWS V14.01,2013-06-18 17:20:00,
2013-06-18 12:21:00,81.2,67.9,29.91,South,184,1.0,6.0,64,0.01,,SKC,0.39,VWS V14.01,2013-06-18 17:21:00,
2013-06-18 12:22:00,81.2,67.9,29.91,South,184,1.0,6.0,64,0.01,,SKC,0.39,VWS V14.01,2013-06-18 17:22:00,
2013-06-18 12:23:00,81.2,67.4,29.91,South,171,2.0,2.0,63,0.01,,SKC,0.39,VWS V14.01,2013-06-18 17:23:00,
2013-06-18 12:24:00,81.3,68.0,29.91,West,261,5.0,5.0,64,0.01,,SKC,0.39,VWS V14.01,2013-06-18 17:24:00,
2013-06-18 12:25:00,81.4,67.6,29.91,WNW,284,6.0,10.0,63,0.01,,SKC,0.39,VWS V14.01,2013-06-18 17:25:00,
2013-06-18 12:26:00,81.4,68.5,29.91,South,175,4.0,6.0,65,0.01,,SKC,0.39,VWS V14.01,2013-06-18 17:26:00,
2013-06-18 12:27:00,81.4,67.6,29.91,South,175,3.0,6.0,63,0.01,,SKC,0.39,VWS V14.01,2013-06-18 17:27:00,
2013-06-18 12:28:00,81.7,68.3,29.91,SSW,202,4.0,5.0,64,0.01,,SKC,0.39,VWS V14.01,2013-06-18 17:28:00,
2013-06-18 12:29:00,81.8,68.9,29.91,SSW,200,7.0,7.0,65,0.01,,SKC,0.39,VWS V14.01,2013-06-18 17:29:00,
2013-06-18 12:30:00,81.9,68.1,29.90,South,176,4.0,7.0,63,0.01,,SKC,0.39,VWS V14.01,2013-06-18 17:30:00,
2013-06-18 12:31:00,81.9,68.5,29.91,South,184,1.0,6.0,64,0.01,,SKC,0.39,VWS V14.01,2013-06-18 17:31:00,
2013-06-18 12:32:00,81.9,68.5,29.91,South,186,1.0,6.0,64,0.01,,SKC,0.39,VWS V14.01,2013-06-18 17:32:00,
2013-06-18 12:33:00,81.9,68.1,29.91,West,280,0.0,1.0,63,0.01,,SKC,0.39,VWS V14.01,2013-06-18 17:33:00,
2013-06-18 12:34:00,81.9,68.1,29.91,West,281,0.0,1.0,63,0.01,,SKC,0.39,VWS V14.01,2013-06-18 17:34:00,
2013-06-18 12:35:00,82.0,68.2,29.91,WSW,253,1.0,1.0,63,0.01,,SKC,0.39,VWS V14.01,2013-06-18 17:35:00,
2013-06-18 12:36:00,82.1,68.3,29.91,SW,218,4.0,6.0,63,0.01,,SKC,0.39,VWS V14.01,2013-06-18 17:36:00,
2013-06-18 12:37:00,82.1,68.3,29.91,SW,218,4.0,6.0,63,0.01,,SKC,0.39,VWS V14.01,2013-06-18 17:37:00,
2013-06-18 12:38:00,82.4,68.6,29.91,SSW,202,0.0,5.0,63,0.01,,SKC,0.39,VWS V14.01,2013-06-18 17:38:00,
2013-06-18 12:39:00,82.5,68.6,29.91,South,175,3.0,7.0,63,0.01,,SKC,0.39,VWS V14.01,2013-06-18 17:39:00,
2013-06-18 12:40:00,82.5,67.7,29.91,South,180,2.0,6.0,61,0.01,,SKC,0.39,VWS V14.01,2013-06-18 17:40:00,
2013-06-18 12:41:00,82.5,67.7,29.91,SSW,202,4.0,5.0,61,0.01,,SKC,0.39,VWS V14.01,2013-06-18 17:41:00,
2013-06-18 12:42:00,82.5,67.7,29.91,SSW,202,4.0,5.0,61,0.01,,SKC,0.39,VWS V14.01,2013-06-18 17:42:00,
2013-06-18 12:43:00,82.4,68.1,29.90,SSE,150,7.0,11.0,62,0.01,,SKC,0.39,VWS V14.01,2013-06-18 17:43:00,
2013-06-18 12:44:00,82.4,68.1,29.91,SSW,205,5.0,7.0,62,0.01,,SKC,0.39,VWS V14.01,2013-06-18 17:44:00,
2013-06-18 12:45:00,82.5,67.7,29.91,SSW,192,2.0,6.0,61,0.01,,SKC,0.39,VWS V14.01,2013-06-18 17:45:00,
2013-06-18 12:46:00,82.6,68.3,29.91,SW,224,2.0,4.0,62,0.00,,SKC,0.39,VWS V14.01,2013-06-18 17:46:00,
2013-06-18 12:47:00,82.6,68.3,29.91,SW,224,2.0,4.0,62,0.00,,SKC,0.39,VWS V14.01,2013-06-18 17:47:00,
2013-06-18 12:48:00,82.7,67.4,29.91,WSW,241,3.0,6.0,60,0.00,,SKC,0.39,VWS V14.01,2013-06-18 17:48:00,
2013-06-18 12:49:00,82.8,68.0,29.91,West,269,6.0,7.0,61,0.00,,SKC,0.39,VWS V14.01,2013-06-18 17:49:00,
2013-06-18 12:50:00,82.8,67.5,29.91,WNW,287,2.0,7.0,60,0.00,,SKC,0.39,VWS V14.01,2013-06-18 17:50:00,
2013-06-18 12:51:00,82.8,67.5,29.91,South,175,5.0,5.0,60,0.00,,SKC,0.39,VWS V14.01,2013-06-18 17:51:00,
2013-06-18 12:52:00,82.8,67.5,29.91,South,178,3.0,5.0,60,0.00,,SKC,0.39,VWS V14.01,2013-06-18 17:52:00,
2013-06-18 12:53:00,82.9,68.6,29.91,South,185,4.0,8.0,62,0.00,,SKC,0.39,VWS V14.01,2013-06-18 17:53:00,
2013-06-18 12:54:00,82.9,68.1,29.91,South,187,2.0,5.0,61,0.00,,SKC,0.39,VWS V14.01,2013-06-18 17:54:00,
2013-06-18 12:55:00,83.0,69.1,29.91,SSW,198,1.0,5.0,63,0.00,,SKC,0.39,VWS V14.01,2013-06-18 17:55:00,
2013-06-18 12:56:00,83.2,69.3,29.91,SSW,201,1.0,1.0,63,0.00,,SKC,0.39,VWS V14.01,2013-06-18 17:56:00,
2013-06-18 12:57:00,83.2,69.3,29.91,SSW,203,1.0,1.0,63,0.00,,SKC,0.39,VWS V14.01,2013-06-18 17:57:00,
2013-06-18 12:58:00,83.5,69.1,29.91,West,267,5.0,5.0,62,0.00,,SKC,0.39,VWS V14.01,2013-06-18 17:58:00,
2013-06-18 12:59:00,83.6,69.2,29.91,SW,226,4.0,5.0,62,0.00,,SKC,0.39,VWS V14.01,2013-06-18 17:59:00,
2013-06-18 13:00:00,83.7,68.8,29.91,SW,227,1.0,6.0,61,0.00,,SKC,0.39,VWS V14.01,2013-06-18 18:00:00,
2013-06-18 13:01:00,83.8,68.4,29.91,West,278,7.0,8.0,60,0.00,,SKC,0.39,VWS V14.01,2013-06-18 18:01:00,
2013-06-18 13:02:00,83.8,68.4,29.91,West,271,5.0,8.0,60,0.00,,SKC,0.39,VWS V14.01,2013-06-18 18:02:00,
2013-06-18 13:03:00,83.6,67.3,29.91,West,267,4.0,7.0,58,0.00,,SKC,0.39,VWS V14.01,2013-06-18 18:03:00,
2013-06-18 13:04:00,83.5,67.7,29.91,WSW,241,6.0,6.0,59,0.00,,SKC,0.39,VWS V14.01,2013-06-18 18:04:00,
2013-06-18 13:05:00,83.5,67.7,29.91,South,180,6.0,6.0,59,0.00,,SKC,0.39,VWS V14.01,2013-06-18 18:05:00,
2013-06-18 13:06:00,83.6,68.3,29.91,SSW,194,7.0,11.0,60,0.00,,SKC,0.39,VWS V14.01,2013-06-18 18:06:00,
2013-06-18 13:07:00,83.6,68.3,29.91,South,191,5.0,11.0,60,0.00,,SKC,0.39,VWS V14.01,2013-06-18 18:07:00,
2013-06-18 13:08:00,83.9,68.5,29.91,SSW,207,3.0,4.0,60,0.00,,SKC,0.39,VWS V14.01,2013-06-18 18:08:00,
2013-06-18 13:09:00,84.0,68.6,29.91,SSW,205,1.0,5.0,60,0.00,,SKC,0.39,VWS V14.01,2013-06-18 18:09:00,
2013-06-18 13:10:00,84.1,67.7,29.91,WSW,240,5.0,5.0,58,0.00,,SKC,0.39,VWS V14.01,2013-06-18 18:10:00,
2013-06-18 13:11:00,84.3,68.4,29.91,SW,234,12.0,12.0,59,0.00,,SKC,0.39,VWS V14.01,2013-06-18 18:11:00,
2013-06-18 13:12:00,84.2,68.3,29.91,West,260,10.0,10.0,59,0.00,,SKC,0.39,VWS V14.01,2013-06-18 18:12:00,
2013-06-18 13:13:00,84.3,67.9,29.91,SW,225,5.0,5.0,58,0.00,,SKC,0.39,VWS V14.01,2013-06-18 18:13:00,
2013-06-18 13:14:00,84.3,67.4,29.91,WSW,248,1.0,5.0,57,0.00,,SKC,0.39,VWS V14.01,2013-06-18 18:14:00,
2013-06-18 13:15:00,84.2,67.8,29.91,WSW,248,1.0,2.0,58,0.00,,SKC,0.39,VWS V14.01,2013-06-18 18:15:00,
2013-06-18 13:16:00,84.2,68.8,29.91,SW,225,2.0,6.0,60,0.00,,SKC,0.39,VWS V14.01,2013-06-18 18:16:00,
2013-06-18 13:17:00,84.2,68.8,29.91,SW,225,2.0,6.0,60,0.00,,SKC,0.39,VWS V14.01,2013-06-18 18:17:00,
2013-06-18 13:18:00,84.4,69.0,29.90,WSW,238,3.0,9.0,60,0.00,,SKC,0.39,VWS V14.01,2013-06-18 18:18:00,
2013-06-18 13:19:00,84.6,69.2,29.91,SSW,199,6.0,6.0,60,0.00,,SKC,0.39,VWS V14.01,2013-06-18 18:19:00,
2013-06-18 13:20:00,84.7,68.8,29.91,South,187,10.0,11.0,59,0.00,,SKC,0.39,VWS V14.01,2013-06-18 18:20:00,
2013-06-18 13:21:00,84.6,68.2,29.91,South,181,5.0,10.0,58,0.00,,SKC,0.39,VWS V14.01,2013-06-18 18:21:00,
2013-06-18 13:22:00,84.6,68.2,29.91,South,181,5.0,10.0,58,0.00,,SKC,0.39,VWS V14.01,2013-06-18 18:22:00,
2013-06-18 13:23:00,84.3,68.4,29.91,South,174,0.0,6.0,59,0.00,,SKC,0.39,VWS V14.01,2013-06-18 18:23:00,
2013-06-18 13:24:00,84.2,68.3,29.91,SSE,163,4.0,5.0,59,0.00,,SKC,0.39,VWS V14.01,2013-06-18 18:24:00,
2013-06-18 13:25:00,84.1,67.7,29.90,SSE,164,2.0,4.0,58,0.00,,SKC,0.39,VWS V14.01,2013-06-18 18:25:00,
2013-06-18 13:26:00,84.0,68.1,29.90,SSE,164,0.0,2.0,59,0.00,,SKC,0.39,VWS V14.01,2013-06-18 18:26:00,
2013-06-18 13:27:00,84.0,68.1,29.90,SSE,164,0.0,2.0,59,0.00,,SKC,0.39,VWS V14.01,2013-06-18 18:27:00,
2013-06-18 13:28:00,84.1,68.7,29.91,SW,218,0.0,6.0,60,0.00,,SKC,0.39,VWS V14.01,2013-06-18 18:28:00,
2013-06-18 13:29:00,84.3,68.9,29.91,West,271,3.0,6.0,60,0.00,,SKC,0.39,VWS V14.01,2013-06-18 18:29:00,
2013-06-18 13:30:00,84.6,69.2,29.90,SSW,205,3.0,7.0,60,0.00,,SKC,0.39,VWS V14.01,2013-06-18 18:30:00,
2013-06-18 13:31:00,84.9,69.0,29.91,SW,229,2.0,6.0,59,0.00,,SKC,0.39,VWS V14.01,2013-06-18 18:31:00,
2013-06-18 13:32:00,84.9,69.0,29.91,SW,229,2.0,6.0,59,0.00,,SKC,0.39,VWS V14.01,2013-06-18 18:32:00,
2013-06-18 13:33:00,85.4,69.4,29.91,West,279,3.0,5.0,59,0.00,,SKC,0.39,VWS V14.01,2013-06-18 18:33:00,
2013-06-18 13:34:00,85.4,67.9,29.91,West,281,5.0,8.0,56,0.00,,SKC,0.39,VWS V14.01,2013-06-18 18:34:00,
2013-06-18 13:35:00,85.3,68.4,29.90,West,269,6.0,7.0,57,0.00,,SKC,0.39,VWS V14.01,2013-06-18 18:35:00,
2013-06-18 13:36:00,85.1,67.7,29.91,WSW,257,5.0,6.0,56,0.00,,SKC,0.39,VWS V14.01,2013-06-18 18:36:00,
2013-06-18 13:37:00,85.1,67.7,29.91,WSW,257,6.0,6.0,56,0.00,,SKC,0.39,VWS V14.01,2013-06-18 18:37:00,
2013-06-18 13:38:00,84.7,66.8,29.90,West,264,2.0,3.0,55,0.00,,SKC,0.39,VWS V14.01,2013-06-18 18:38:00,
2013-06-18 13:39:00,84.6,67.7,29.90,SW,225,1.0,2.0,57,0.00,,SKC,0.39,VWS V14.01,2013-06-18 18:39:00,
2013-06-18 13:40:00,84.6,68.2,29.90,South,182,1.0,2.0,58,0.00,,SKC,0.39,VWS V14.01,2013-06-18 18:40:00,
2013-06-18 13:41:00,84.7,67.8,29.90,South,179,0.0,2.0,57,0.00,,SKC,0.39,VWS V14.01,2013-06-18 18:41:00,
2013-06-18 13:42:00,84.7,67.8,29.90,South,179,0.0,2.0,57,0.00,,SKC,0.39,VWS V14.01,2013-06-18 18:42:00,
2013-06-18 13:43:00,85.0,68.6,29.90,South,180,1.0,1.0,58,0.00,,SKC,0.39,VWS V14.01,2013-06-18 18:43:00,
2013-06-18 13:44:00,85.2,68.3,29.90,South,182,0.0,3.0,57,0.00,,SKC,0.39,VWS V14.01,2013-06-18 18:44:00,
2013-06-18 13:45:00,85.4,68.4,29.90,SSW,202,3.0,4.0,57,0.00,,SKC,0.39,VWS V14.01,2013-06-18 18:45:00,
2013-06-18 13:46:00,85.5,68.0,29.90,SSW,194,4.0,5.0,56,0.00,,SKC,0.39,VWS V14.01,2013-06-18 18:46:00,
2013-06-18 13:47:00,85.5,68.0,29.90,SSW,194,4.0,5.0,56,0.00,,SKC,0.39,VWS V14.01,2013-06-18 18:47:00,
2013-06-18 13:48:00,85.4,67.4,29.90,SSW,198,5.0,5.0,55,0.00,,SKC,0.39,VWS V14.01,2013-06-18 18:48:00,
2013-06-18 13:49:00,85.4,68.4,29.90,South,170,5.0,9.0,57,0.00,,SKC,0.39,VWS V14.01,2013-06-18 18:49:00,
2013-06-18 13:50:00,85.4,67.9,29.90,South,171,4.0,6.0,56,0.00,,SKC,0.39,VWS V14.01,2013-06-18 18:50:00,
2013-06-18 13:51:00,85.4,67.9,29.90,South,190,7.0,8.0,56,0.00,,SKC,0.39,VWS V14.01,2013-06-18 18:51:00,
2013-06-18 13:52:00,85.4,67.9,29.90,South,190,7.0,8.0,56,0.00,,SKC,0.39,VWS V14.01,2013-06-18 18:52:00,
2013-06-18 13:53:00,85.3,68.4,29.90,SSE,156,1.0,6.0,57,0.00,,SKC,0.39,VWS V14.01,2013-06-18 18:53:00,
2013-06-18 13:54:00,85.3,67.8,29.90,SSE,163,4.0,5.0,56,0.00,,SKC,0.39,VWS V14.01,2013-06-18 18:54:00,
2013-06-18 13:55:00,85.4,67.4,29.90,South,171,4.0,6.0,55,0.00,,SKC,0.39,VWS V14.01,2013-06-18 18:55:00,
2013-06-18 13:56:00,85.4,67.9,29.90,SSE,158,4.0,5.0,56,0.00,,SKC,0.39,VWS V14.01,2013-06-18 18:56:00,
2013-06-18 13:57:00,85.4,67.9,29.90,SSE,158,5.0,5.0,56,0.00,,SKC,0.39,VWS V14.01,2013-06-18 18:57:00,
2013-06-18 13:58:00,85.2,67.2,29.89,SSE,161,5.0,10.0,55,0.00,,SKC,0.39,VWS V14.01,2013-06-18 18:58:00,
2013-06-18 13:59:00,85.2,67.2,29.89,SSE,165,5.0,7.0,55,0.00,,SKC,0.39,VWS V14.01,2013-06-18 18:59:00,
2013-06-18 14:00:00,85.1,67.7,29.90,SSE,157,4.0,9.0,56,0.00,,SKC,0.39,VWS V14.01,2013-06-18 19:00:00,
2013-06-18 14:01:00,85.1,67.1,29.90,South,175,5.0,7.0,55,0.00,,SKC,0.39,VWS V14.01,2013-06-18 19:01:00,
2013-06-18 14:02:00,85.1,67.1,29.89,SSE,167,6.0,7.0,55,0.00,,SKC,0.39,VWS V14.01,2013-06-18 19:02:00,
2013-06-18 14:03:00,85.0,67.0,29.89,SSW,192,4.0,9.0,55,0.00,,SKC,0.39,VWS V14.01,2013-06-18 19:03:00,
2013-06-18 14:04:00,85.0,68.1,29.89,South,190,1.0,7.0,57,0.00,,SKC,0.39,VWS V14.01,2013-06-18 19:04:00,
2013-06-18 14:05:00,85.0,67.6,29.89,SSW,199,2.0,5.0,56,0.00,,SKC,0.39,VWS V14.01,2013-06-18 19:05:00,
2013-06-18 14:06:00,85.0,67.0,29.89,SSW,199,0.0,2.0,55,0.00,,SKC,0.39,VWS V14.01,2013-06-18 19:06:00,
2013-06-18 14:07:00,85.0,67.0,29.89,SSW,199,0.0,2.0,55,0.00,,SKC,0.39,VWS V14.01,2013-06-18 19:07:00,
2013-06-18 14:08:00,85.1,67.7,29.89,SSW,199,1.0,2.0,56,0.00,,SKC,0.39,VWS V14.01,2013-06-18 19:08:00,
2013-06-18 14:09:00,85.2,67.8,29.89,South,186,4.0,4.0,56,0.00,,SKC,0.39,VWS V14.01,2013-06-18 19:09:00,
2013-06-18 14:10:00,85.4,68.4,29.89,SSW,200,5.0,5.0,57,0.00,,SKC,0.39,VWS V14.01,2013-06-18 19:10:00,
2013-06-18 14:11:00,85.7,68.7,29.89,SW,229,9.0,9.0,57,0.00,,SKC,0.39,VWS V14.01,2013-06-18 19:11:00,
2013-06-18 14:12:00,85.6,68.6,29.89,South,184,6.0,7.0,57,0.00,,SKC,0.39,VWS V14.01,2013-06-18 19:12:00,
2013-06-18 14:13:00,86.2,68.7,29.89,SSW,196,4.0,9.0,56,0.00,,SKC,0.39,VWS V14.01,2013-06-18 19:13:00,
2013-06-18 14:14:00,86.3,68.8,29.89,South,183,5.0,8.0,56,0.00,,SKC,0.39,VWS V14.01,2013-06-18 19:14:00,
2013-06-18 14:15:00,86.4,68.3,29.89,South,173,7.0,8.0,55,0.00,,SKC,0.39,VWS V14.01,2013-06-18 19:15:00,
2013-06-18 14:16:00,86.3,67.2,29.89,SSW,195,3.0,7.0,53,0.00,,SKC,0.39,VWS V14.01,2013-06-18 19:16:00,
2013-06-18 14:17:00,86.3,67.2,29.89,SSW,195,3.0,7.0,53,0.00,,SKC,0.39,VWS V14.01,2013-06-18 19:17:00,
2013-06-18 14:18:00,86.4,68.3,29.89,SSW,196,1.0,3.0,55,0.00,,SKC,0.39,VWS V14.01,2013-06-18 19:18:00,
2013-06-18 14:19:00,86.4,67.3,29.89,SSW,210,1.0,4.0,53,0.00,,SKC,0.39,VWS V14.01,2013-06-18 19:19:00,
2013-06-18 14:20:00,86.4,67.3,29.89,East,93,3.0,3.0,53,0.00,,SKC,0.39,VWS V14.01,2013-06-18 19:20:00,
2013-06-18 14:21:00,86.5,67.9,29.89,ENE,69,1.0,5.0,54,0.00,,SKC,0.39,VWS V14.01,2013-06-18 19:21:00,
2013-06-18 14:22:00,86.5,67.9,29.89,ENE,70,1.0,5.0,54,0.00,,SKC,0.39,VWS V14.01,2013-06-18 19:22:00,
2013-06-18 14:23:00,86.5,67.4,29.89,SE,144,0.0,2.0,53,0.00,,SKC,0.39,VWS V14.01,2013-06-18 19:23:00,
2013-06-18 14:24:00,86.7,69.1,29.89,SW,222,3.0,4.0,56,0.00,,SKC,0.39,VWS V14.01,2013-06-18 19:24:00,
2013-06-18 14:25:00,86.8,67.6,29.89,SW,222,0.0,3.0,53,0.00,,SKC,0.39,VWS V14.01,2013-06-18 19:25:00,
2013-06-18 14:26:00,86.9,67.7,29.89,SW,222,0.0,0.0,53,0.00,,SKC,0.39,VWS V14.01,2013-06-18 19:26:00,
2013-06-18 14:27:00,86.9,67.7,29.89,SW,222,0.0,0.0,53,0.00,,SKC,0.39,VWS V14.01,2013-06-18 19:27:00,
2013-06-18 14:28:00,87.1,68.4,29.89,South,183,4.0,6.0,54,0.00,,SKC,0.39,VWS V14.01,2013-06-18 19:28:00,
2013-06-18 14:29:00,87.1,69.0,29.88,SSW,200,3.0,5.0,55,0.00,,SKC,0.39,VWS V14.01,2013-06-18 19:29:00,
2013-06-18 14:30:00,87.2,68.5,29.88,South,184,4.0,4.0,54,0.00,,SKC,0.39,VWS V14.01,2013-06-18 19:30:00,
2013-06-18 14:31:00,87.3,68.1,29.88,SE,137,2.0,4.0,53,0.00,,SKC,0.39,VWS V14.01,2013-06-18 19:31:00,
2013-06-18 14:32:00,87.3,68.1,29.88,SE,137,2.0,4.0,53,0.00,,SKC,0.39,VWS V14.01,2013-06-18 19:32:00,
2013-06-18 14:33:00,87.4,67.6,29.88,NE,47,0.0,2.0,52,0.00,,SKC,0.39,VWS V14.01,2013-06-18 19:33:00,
2013-06-18 14:34:00,87.4,68.2,29.88,NE,46,2.0,2.0,53,0.00,,SKC,0.39,VWS V14.01,2013-06-18 19:34:00,
2013-06-18 14:35:00,87.5,67.7,29.88,NE,46,0.0,2.0,52,0.00,,SKC,0.39,VWS V14.01,2013-06-18 19:35:00,
2013-06-18 14:36:00,87.5,68.3,29.88,SSE,157,3.0,3.0,53,0.00,,SKC,0.39,VWS V14.01,2013-06-18 19:36:00,
2013-06-18 14:37:00,87.5,68.3,29.88,SSE,157,3.0,3.0,53,0.00,,SKC,0.39,VWS V14.01,2013-06-18 19:37:00,
2013-06-18 14:38:00,87.5,68.8,29.88,SE,128,1.0,2.0,54,0.00,,SKC,0.39,VWS V14.01,2013-06-18 19:38:00,
2013-06-18 14:39:00,87.5,68.3,29.88,ESE,106,2.0,4.0,53,0.00,,SKC,0.39,VWS V14.01,2013-06-18 19:39:00,
2013-06-18 14:40:00,87.5,67.7,29.88,ESE,106,0.0,2.0,52,0.00,,SKC,0.39,VWS V14.01,2013-06-18 19:40:00,
2013-06-18 14:41:00,87.4,68.2,29.88,ESE,107,2.0,4.0,53,0.00,,SKC,0.39,VWS V14.01,2013-06-18 19:41:00,
2013-06-18 14:42:00,87.4,68.2,29.88,ESE,114,2.0,2.0,53,0.00,,SKC,0.39,VWS V14.01,2013-06-18 19:42:00,
2013-06-18 14:43:00,87.2,68.0,29.88,East,97,0.0,3.0,53,0.00,,SKC,0.39,VWS V14.01,2013-06-18 19:43:00,
2013-06-18 14:44:00,87.1,67.9,29.88,ENE,73,2.0,4.0,53,0.00,,SKC,0.39,VWS V14.01,2013-06-18 19:44:00,
2013-06-18 14:45:00,87.1,67.4,29.88,ENE,74,1.0,3.0,52,0.00,,SKC,0.39,VWS V14.01,2013-06-18 19:45:00,
2013-06-18 14:46:00,87.0,67.3,29.88,South,170,2.0,3.0,52,0.00,,SKC,0.39,VWS V14.01,2013-06-18 19:46:00,
2013-06-18 14:47:00,87.0,68.4,29.88,South,169,2.0,2.0,54,0.00,,SKC,0.39,VWS V14.01,2013-06-18 19:47:00,
2013-06-18 14:48:00,86.8,67.1,29.88,SSW,198,5.0,8.0,52,0.00,,SKC,0.39,VWS V14.01,2013-06-18 19:48:00,
2013-06-18 14:49:00,86.7,67.0,29.88,SSE,164,1.0,6.0,52,0.00,,SKC,0.39,VWS V14.01,2013-06-18 19:49:00,
2013-06-18 14:50:00,86.5,66.8,29.88,South,176,2.0,4.0,52,0.00,,SKC,0.39,VWS V14.01,2013-06-18 19:50:00,
2013-06-18 14:51:00,86.4,67.8,29.88,South,179,2.0,4.0,54,0.00,,SKC,0.39,VWS V14.01,2013-06-18 19:51:00,
2013-06-18 14:52:00,86.3,67.7,29.88,South,179,2.0,2.0,54,0.00,,SKC,0.39,VWS V14.01,2013-06-18 19:52:00,
2013-06-18 14:53:00,86.2,67.1,29.88,South,179,1.0,3.0,53,0.00,,SKC,0.39,VWS V14.01,2013-06-18 19:53:00,
2013-06-18 14:54:00,86.2,67.1,29.87,South,179,2.0,2.0,53,0.00,,SKC,0.39,VWS V14.01,2013-06-18 19:54:00,
2013-06-18 14:55:00,86.1,67.5,29.87,South,179,2.0,3.0,54,0.00,,SKC,0.39,VWS V14.01,2013-06-18 19:55:00,
2013-06-18 14:56:00,86.1,67.0,29.88,South,180,1.0,3.0,53,0.00,,SKC,0.39,VWS V14.01,2013-06-18 19:56:00,
2013-06-18 14:57:00,86.1,67.0,29.88,South,180,0.0,1.0,53,0.00,,SKC,0.39,VWS V14.01,2013-06-18 19:57:00,
2013-06-18 14:58:00,86.2,67.6,29.88,East,101,3.0,3.0,54,0.00,,SKC,0.39,VWS V14.01,2013-06-18 19:58:00,
2013-06-18 14:59:00,86.2,67.1,29.87,SE,127,2.0,5.0,53,0.00,,SKC,0.39,VWS V14.01,2013-06-18 19:59:00,
2013-06-18 15:00:00,86.3,67.7,29.87,ESE,102,3.0,4.0,54,0.00,,SKC,0.39,VWS V14.01,2013-06-18 20:00:00,
2013-06-18 15:01:00,86.4,67.8,29.87,SSE,165,5.0,6.0,54,0.00,,SKC,0.39,VWS V14.01,2013-06-18 20:01:00,
2013-06-18 15:02:00,86.4,67.8,29.87,SSE,165,4.0,5.0,54,0.00,,SKC,0.39,VWS V14.01,2013-06-18 20:02:00,
2013-06-18 15:03:00,86.5,68.4,29.87,SE,140,3.0,3.0,55,0.00,,SKC,0.39,VWS V14.01,2013-06-18 20:03:00,
2013-06-18 15:04:00,86.6,67.4,29.87,SE,132,3.0,5.0,53,0.00,,SKC,0.39,VWS V14.01,2013-06-18 20:04:00,
2013-06-18 15:05:00,86.8,68.2,29.87,ESE,108,2.0,3.0,54,0.00,,SKC,0.39,VWS V14.01,2013-06-18 20:05:00,
2013-06-18 15:06:00,86.9,67.7,29.87,NE,36,2.0,4.0,53,0.00,,SKC,0.39,VWS V14.01,2013-06-18 20:06:00,
2013-06-18 15:07:00,86.9,67.7,29.87,NE,37,2.0,2.0,53,0.00,,SKC,0.39,VWS V14.01,2013-06-18 20:07:00,
2013-06-18 15:08:00,87.3,68.6,29.87,SSE,156,3.0,9.0,54,0.00,,SKC,0.39,VWS V14.01,2013-06-18 20:08:00,
2013-06-18 15:09:00,87.5,68.3,29.87,SE,140,6.0,8.0,53,0.00,,SKC,0.39,VWS V14.01,2013-06-18 20:09:00,
2013-06-18 15:10:00,87.5,67.2,29.87,SE,142,5.0,8.0,51,0.00,,SKC,0.39,VWS V14.01,2013-06-18 20:10:00,
2013-06-18 15:11:00,87.5,67.7,29.87,ESE,111,1.0,7.0,52,0.00,,SKC,0.39,VWS V14.01,2013-06-18 20:11:00,
2013-06-18 15:12:00,87.5,67.7,29.87,ESE,103,2.0,6.0,52,0.00,,SKC,0.39,VWS V14.01,2013-06-18 20:12:00,
2013-06-18 15:13:00,87.5,67.7,29.87,SSE,157,2.0,2.0,52,0.00,,SKC,0.39,VWS V14.01,2013-06-18 20:13:00,
2013-06-18 15:14:00,87.5,67.2,29.87,ESE,117,4.0,7.0,51,0.00,,SKC,0.39,VWS V14.01,2013-06-18 20:14:00,
2013-06-18 15:15:00,87.4,67.1,29.87,SE,137,4.0,4.0,51,0.00,,SKC,0.39,VWS V14.01,2013-06-18 20:15:00,
2013-06-18 15:16:00,87.4,67.6,29.87,ENE,61,1.0,4.0,52,0.00,,SKC,0.39,VWS V14.01,2013-06-18 20:16:00,
2013-06-18 15:17:00,87.5,67.2,29.87,SE,144,5.0,5.0,51,0.00,,SKC,0.39,VWS V14.01,2013-06-18 20:17:00,
2013-06-18 15:18:00,87.4,67.6,29.87,ENE,61,1.0,1.0,52,0.00,,SKC,0.39,VWS V14.01,2013-06-18 20:18:00,
2013-06-18 15:19:00,87.4,67.1,29.87,East,101,3.0,5.0,51,0.00,,SKC,0.39,VWS V14.01,2013-06-18 20:19:00,
2013-06-18 15:20:00,87.3,67.0,29.87,East,84,2.0,3.0,51,0.00,,SKC,0.39,VWS V14.01,2013-06-18 20:20:00,
2013-06-18 15:21:00,87.3,66.4,29.87,East,80,0.0,3.0,50,0.00,,SKC,0.39,VWS V14.01,2013-06-18 20:21:00,
2013-06-18 15:22:00,87.2,67.4,29.87,East,80,0.0,0.0,52,0.00,,SKC,0.39,VWS V14.01,2013-06-18 20:22:00,
2013-06-18 15:23:00,87.3,67.0,29.87,East,80,0.0,0.0,51,0.00,,SKC,0.39,VWS V14.01,2013-06-18 20:23:00,
2013-06-18 15:24:00,87.2,68.0,29.87,East,80,2.0,3.0,53,0.00,,SKC,0.39,VWS V14.01,2013-06-18 20:24:00,
2013-06-18 15:25:00,87.2,66.9,29.87,ENE,63,1.0,4.0,51,0.00,,SKC,0.39,VWS V14.01,2013-06-18 20:25:00,
2013-06-18 15:26:00,87.4,68.2,29.87,ENE,69,1.0,2.0,53,0.00,,SKC,0.39,VWS V14.01,2013-06-18 20:26:00,
2013-06-18 15:27:00,87.5,68.3,29.87,South,190,4.0,4.0,53,0.00,,SKC,0.39,VWS V14.01,2013-06-18 20:27:00,
2013-06-18 15:28:00,87.4,68.2,29.87,ENE,69,0.0,1.0,53,0.00,,SKC,0.39,VWS V14.01,2013-06-18 20:28:00,
2013-06-18 15:29:00,87.9,68.1,29.87,SSE,164,3.0,6.0,52,0.00,,SKC,0.39,VWS V14.01,2013-06-18 20:29:00,
2013-06-18 15:30:00,88.0,67.6,29.87,SSE,157,1.0,3.0,51,0.00,,SKC,0.39,VWS V14.01,2013-06-18 20:30:00,
2013-06-18 15:31:00,88.2,67.8,29.87,South,185,2.0,5.0,51,0.00,,SKC,0.39,VWS V14.01,2013-06-18 20:31:00,
2013-06-18 15:32:00,88.2,67.2,29.87,South,185,1.0,3.0,50,0.00,,SKC,0.39,VWS V14.01,2013-06-18 20:32:00,
2013-06-18 15:33:00,88.2,67.8,29.87,South,184,2.0,3.0,51,0.00,,SKC,0.39,VWS V14.01,2013-06-18 20:33:00,
2013-06-18 15:34:00,88.2,67.2,29.87,South,185,1.0,2.0,50,0.00,,SKC,0.39,VWS V14.01,2013-06-18 20:34:00,
2013-06-18 15:35:00,88.3,67.3,29.87,South,184,0.0,1.0,50,0.00,,SKC,0.39,VWS V14.01,2013-06-18 20:35:00,
2013-06-18 15:36:00,88.3,67.3,29.87,SSE,168,4.0,5.0,50,0.00,,SKC,0.39,VWS V14.01,2013-06-18 20:36:00,
2013-06-18 15:37:00,88.3,66.7,29.87,South,169,0.0,5.0,49,0.00,,SKC,0.39,VWS V14.01,2013-06-18 20:37:00,
2013-06-18 15:38:00,88.3,67.3,29.87,South,169,4.0,4.0,50,0.00,,SKC,0.39,VWS V14.01,2013-06-18 20:38:00,
2013-06-18 15:39:00,88.2,66.6,29.87,East,101,0.0,3.0,49,0.00,,SKC,0.39,VWS V14.01,2013-06-18 20:39:00,
2013-06-18 15:40:00,88.2,67.2,29.86,SSE,151,3.0,4.0,50,0.00,,SKC,0.39,VWS V14.01,2013-06-18 20:40:00,
2013-06-18 15:41:00,88.1,66.6,29.86,SSE,166,2.0,3.0,49,0.00,,SKC,0.39,VWS V14.01,2013-06-18 20:41:00,
2013-06-18 15:42:00,88.1,66.0,29.86,SSE,157,3.0,5.0,48,0.00,,SKC,0.39,VWS V14.01,2013-06-18 20:42:00,
2013-06-18 15:43:00,88.1,66.6,29.86,SSE,160,5.0,5.0,49,0.00,,SKC,0.39,VWS V14.01,2013-06-18 20:43:00,
2013-06-18 15:48:00,88.7,67.1,29.86,SSW,193,4.0,5.0,49,0.00,,SKC,0.39,VWS V14.01,2013-06-18 20:48:00,
2013-06-18 15:53:00,89.2,66.3,29.86,SSW,205,3.0,3.0,47,0.00,,SKC,0.39,VWS V14.01,2013-06-18 20:53:00,
2013-06-18 15:58:00,89.3,66.4,29.86,SSW,193,1.0,3.0,47,0.00,,SKC,0.39,VWS V14.01,2013-06-18 20:58:00,
2013-06-18 16:03:00,89.5,66.0,29.86,SW,226,0.0,0.0,46,0.00,,SKC,0.39,VWS V14.01,2013-06-18 21:03:00,
2013-06-18 16:08:00,89.5,66.6,29.86,SSW,197,10.0,14.0,47,0.00,,SKC,0.39,VWS V14.01,2013-06-18 21:08:00,
2013-06-18 16:13:00,89.4,68.9,29.86,SE,137,0.0,3.0,51,0.00,,SKC,0.39,VWS V14.01,2013-06-18 21:13:00,
2013-06-18 16:18:00,89.8,69.8,29.85,SE,138,2.0,5.0,52,0.00,,SKC,0.39,VWS V14.01,2013-06-18 21:18:00,
2013-06-18 16:23:00,89.7,69.8,29.85,South,173,0.0,2.0,52,0.00,,SKC,0.39,VWS V14.01,2013-06-18 21:23:00,
2013-06-18 16:28:00,89.9,69.4,29.85,East,82,0.0,0.0,51,0.00,,SKC,0.39,VWS V14.01,2013-06-18 21:28:00,
2013-06-18 16:33:00,89.6,66.1,29.84,South,187,4.0,6.0,46,0.00,,SKC,0.39,VWS V14.01,2013-06-18 21:33:00,
2013-06-18 16:38:00,89.2,65.1,29.84,SSE,163,0.0,0.0,45,0.00,,SKC,0.39,VWS V14.01,2013-06-18 21:38:00,
2013-06-18 16:43:00,89.6,66.7,29.84,SSE,163,1.0,2.0,47,0.00,,SKC,0.39,VWS V14.01,2013-06-18 21:43:00,
2013-06-18 16:48:00,89.9,65.7,29.84,SSE,165,3.0,6.0,45,0.00,,SKC,0.39,VWS V14.01,2013-06-18 21:48:00,
2013-06-18 16:53:00,89.0,66.2,29.84,SSE,166,1.0,3.0,47,0.00,,SKC,0.39,VWS V14.01,2013-06-18 21:53:00,
2013-06-18 16:58:00,88.7,65.3,29.83,West,267,3.0,4.0,46,0.00,,SKC,0.39,VWS V14.01,2013-06-18 21:58:00,
2013-06-18 17:03:00,88.9,65.5,29.83,SSW,194,2.0,6.0,46,0.00,,SKC,0.39,VWS V14.01,2013-06-18 22:03:00,
2013-06-18 17:08:00,89.0,66.2,29.83,South,173,0.0,1.0,47,0.00,,SKC,0.39,VWS V14.01,2013-06-18 22:08:00,
2013-06-18 17:13:00,89.8,66.9,29.83,ESE,120,7.0,8.0,47,0.00,,SKC,0.39,VWS V14.01,2013-06-18 22:13:00,
2013-06-18 17:18:00,90.1,67.2,29.83,SE,132,4.0,4.0,47,0.00,,SKC,0.39,VWS V14.01,2013-06-18 22:18:00,
2013-06-18 17:23:00,90.3,67.3,29.83,SSE,155,4.0,4.0,47,0.00,,SKC,0.39,VWS V14.01,2013-06-18 22:23:00,
2013-06-18 17:28:00,90.8,67.8,29.82,North,360,8.0,8.0,47,0.00,,SKC,0.39,VWS V14.01,2013-06-18 22:28:00,
2013-06-18 17:33:00,90.8,66.6,29.83,SSW,200,2.0,6.0,45,0.00,,SKC,0.39,VWS V14.01,2013-06-18 22:33:00,
2013-06-18 17:38:00,90.5,66.3,29.82,South,179,7.0,10.0,45,0.00,,SKC,0.39,VWS V14.01,2013-06-18 22:38:00,
2013-06-18 17:43:00,90.2,66.6,29.82,SE,128,4.0,5.0,46,0.00,,SKC,0.39,VWS V14.01,2013-06-18 22:43:00,
2013-06-18 17:48:00,90.1,67.2,29.82,ESE,123,4.0,6.0,47,0.00,,SKC,0.39,VWS V14.01,2013-06-18 22:48:00,
2013-06-18 17:53:00,89.9,67.6,29.82,SE,125,2.0,5.0,48,0.00,,SKC,0.39,VWS V14.01,2013-06-18 22:53:00,
2013-06-18 17:58:00,89.6,67.3,29.82,SE,135,3.0,5.0,48,0.00,,SKC,0.39,VWS V14.01,2013-06-18 22:58:00,
2013-06-18 18:03:00,89.3,67.1,29.82,SE,125,3.0,4.0,48,0.00,,SKC,0.39,VWS V14.01,2013-06-18 23:03:00,
2013-06-18 18:08:00,88.8,67.8,29.82,East,92,4.0,6.0,50,0.00,,SKC,0.39,VWS V14.01,2013-06-18 23:08:00,
2013-06-18 18:13:00,88.6,66.4,29.82,ESE,105,0.0,4.0,48,0.00,,SKC,0.39,VWS V14.01,2013-06-18 23:13:00,
2013-06-18 18:18:00,88.1,67.1,29.81,ESE,106,4.0,4.0,50,0.00,,SKC,0.39,VWS V14.01,2013-06-18 23:18:00,
2013-06-18 18:23:00,87.9,67.5,29.81,ESE,108,1.0,5.0,51,0.00,,SKC,0.39,VWS V14.01,2013-06-18 23:23:00,
2013-06-18 18:28:00,87.8,66.9,29.81,ENE,75,3.0,4.0,50,0.00,,SKC,0.39,VWS V14.01,2013-06-18 23:28:00,
2013-06-18 18:33:00,87.2,66.3,29.81,ESE,110,4.0,5.0,50,0.00,,SKC,0.39,VWS V14.01,2013-06-18 23:33:00,
2013-06-18 18:38:00,87.1,66.8,29.82,East,101,0.0,2.0,51,0.00,,SKC,0.39,VWS V14.01,2013-06-18 23:38:00,
2013-06-18 18:43:00,86.9,66.6,29.81,NE,42,2.0,3.0,51,0.00,,SKC,0.39,VWS V14.01,2013-06-18 23:43:00,
2013-06-18 18:48:00,86.6,68.5,29.82,NE,45,2.0,5.0,55,0.00,,SKC,0.39,VWS V14.01,2013-06-18 23:48:00,
2013-06-18 18:53:00,86.1,68.1,29.81,East,82,3.0,6.0,55,0.00,,SKC,0.39,VWS V14.01,2013-06-18 23:53:00,
2013-06-18 18:58:00,85.9,68.4,29.82,NE,52,2.0,3.0,56,0.00,,SKC,0.39,VWS V14.01,2013-06-18 23:58:00,
2013-06-18 19:03:00,86.1,67.5,29.82,East,79,5.0,7.0,54,0.00,,SKC,0.39,VWS V14.01,2013-06-19 00:03:00,
2013-06-18 19:08:00,86.4,68.3,29.82,East,84,3.0,3.0,55,0.00,,SKC,0.39,VWS V14.01,2013-06-19 00:08:00,
2013-06-18 19:13:00,86.6,68.0,29.81,NE,55,1.0,3.0,54,0.00,,SKC,0.39,VWS V14.01,2013-06-19 00:13:00,
2013-06-18 19:18:00,86.8,68.2,29.82,ENE,65,1.0,3.0,54,0.00,,SKC,0.39,VWS V14.01,2013-06-19 00:18:00,
2013-06-18 19:23:00,87.0,67.8,29.81,ENE,65,2.0,3.0,53,0.00,,SKC,0.39,VWS V14.01,2013-06-19 00:23:00,
2013-06-18 19:28:00,86.9,67.7,29.81,East,87,3.0,3.0,53,0.00,,SKC,0.39,VWS V14.01,2013-06-19 00:28:00,
2013-06-18 19:33:00,86.8,67.6,29.81,ESE,103,2.0,3.0,53,0.00,,SKC,0.39,VWS V14.01,2013-06-19 00:33:00,
2013-06-18 19:38:00,86.7,67.5,29.81,SSE,153,2.0,4.0,53,0.00,,SKC,0.39,VWS V14.01,2013-06-19 00:38:00,
2013-06-18 19:43:00,86.5,66.8,29.81,ESE,123,2.0,5.0,52,0.00,,SKC,0.39,VWS V14.01,2013-06-19 00:43:00,
2013-06-18 19:48:00,86.3,66.1,29.81,SE,132,2.0,5.0,51,0.00,,SKC,0.39,VWS V14.01,2013-06-19 00:48:00,
2013-06-18 19:53:00,86.0,65.8,29.81,SE,138,0.0,2.0,51,0.00,,SKC,0.39,VWS V14.01,2013-06-19 00:53:00,
2013-06-18 19:58:00,85.7,66.1,29.82,SE,135,5.0,5.0,52,0.00,,SKC,0.39,VWS V14.01,2013-06-19 00:58:00,
2013-06-18 20:03:00,85.4,65.8,29.81,ESE,117,4.0,5.0,52,0.00,,SKC,0.39,VWS V14.01,2013-06-19 01:03:00,
2013-06-18 20:08:00,85.0,66.0,29.82,ESE,117,2.0,3.0,53,0.00,,SKC,0.39,VWS V14.01,2013-06-19 01:08:00,
2013-06-18 20:13:00,84.7,65.7,29.82,ESE,119,1.0,3.0,53,0.00,,SKC,0.39,VWS V14.01,2013-06-19 01:13:00,
2013-06-18 20:18:00,84.4,65.9,29.82,ESE,115,3.0,4.0,54,0.00,,SKC,0.39,VWS V14.01,2013-06-19 01:18:00,
2013-06-18 20:23:00,84.1,65.7,29.82,ESE,115,0.0,3.0,54,0.00,,SKC,0.39,VWS V14.01,2013-06-19 01:23:00,
2013-06-18 20:28:00,83.8,65.4,29.82,SE,130,2.0,2.0,54,0.00,,SKC,0.39,VWS V14.01,2013-06-19 01:28:00,
2013-06-18 20:33:00,83.6,65.7,29.82,ESE,114,1.0,3.0,55,0.00,,SKC,0.39,VWS V14.01,2013-06-19 01:33:00,
2013-06-18 20:38:00,83.2,65.4,29.82,ESE,110,0.0,2.0,55,0.00,,SKC,0.39,VWS V14.01,2013-06-19 01:38:00,
2013-06-18 20:43:00,82.9,65.6,29.83,ESE,110,0.0,2.0,56,0.00,,SKC,0.39,VWS V14.01,2013-06-19 01:43:00,
2013-06-18 20:48:00,82.6,65.3,29.83,ESE,111,0.0,1.0,56,0.00,,SKC,0.39,VWS V14.01,2013-06-19 01:48:00,
2013-06-18 20:53:00,82.2,65.5,29.83,SE,137,1.0,3.0,57,0.00,,SKC,0.39,VWS V14.01,2013-06-19 01:53:00,
2013-06-18 20:58:00,82.0,65.3,29.83,ESE,111,0.0,0.0,57,0.00,,SKC,0.39,VWS V14.01,2013-06-19 01:58:00,
2013-06-18 21:03:00,81.7,65.5,29.83,ESE,112,0.0,1.0,58,0.00,,SKC,0.39,VWS V14.01,2013-06-19 02:03:00,
2013-06-18 21:08:00,81.4,65.2,29.83,ESE,112,0.0,0.0,58,0.00,,SKC,0.39,VWS V14.01,2013-06-19 02:08:00,
2013-06-18 21:13:00,81.2,65.5,29.83,ESE,112,0.0,0.0,59,0.00,,SKC,0.39,VWS V14.01,2013-06-19 02:13:00,
2013-06-18 21:18:00,80.9,65.2,29.83,ESE,113,0.0,3.0,59,0.00,,SKC,0.39,VWS V14.01,2013-06-19 02:18:00,
2013-06-18 21:23:00,80.7,65.5,29.83,ESE,114,1.0,2.0,60,0.00,,SKC,0.39,VWS V14.01,2013-06-19 02:23:00,
2013-06-18 21:28:00,80.5,65.3,29.83,ESE,123,1.0,2.0,60,0.00,,SKC,0.39,VWS V14.01,2013-06-19 02:28:00,
2013-06-18 21:33:00,80.4,65.3,29.83,SE,130,2.0,2.0,60,0.00,,SKC,0.39,VWS V14.01,2013-06-19 02:33:00,
2013-06-18 21:38:00,80.3,65.2,29.83,SE,131,0.0,2.0,60,0.00,,SKC,0.39,VWS V14.01,2013-06-19 02:38:00,
2013-06-18 21:43:00,80.2,65.5,29.83,SE,131,0.0,1.0,61,0.00,,SKC,0.39,VWS V14.01,2013-06-19 02:43:00,
2013-06-18 21:48:00,80.0,65.4,29.84,SE,131,1.0,3.0,61,0.00,,SKC,0.39,VWS V14.01,2013-06-19 02:48:00,
2013-06-18 21:53:00,79.9,65.3,29.84,SE,130,0.0,3.0,61,0.00,,SKC,0.39,VWS V14.01,2013-06-19 02:53:00,
2013-06-18 21:58:00,79.8,65.2,29.84,SE,131,1.0,2.0,61,0.00,,SKC,0.39,VWS V14.01,2013-06-19 02:58:00,
2013-06-18 22:03:00,79.6,65.4,29.84,SE,131,1.0,1.0,62,0.00,,SKC,0.39,VWS V14.01,2013-06-19 03:03:00,
2013-06-18 22:08:00,79.3,65.2,29.84,SE,130,0.0,1.0,62,0.00,,SKC,0.39,VWS V14.01,2013-06-19 03:08:00,
2013-06-18 22:13:00,79.0,65.3,29.84,SE,130,2.0,3.0,63,0.00,,SKC,0.39,VWS V14.01,2013-06-19 03:13:00,
2013-06-18 22:18:00,78.7,65.1,29.84,SE,130,0.0,2.0,63,0.00,,SKC,0.39,VWS V14.01,2013-06-19 03:18:00,
2013-06-18 22:23:00,78.7,65.5,29.85,SE,130,1.0,1.0,64,0.00,,SKC,0.39,VWS V14.01,2013-06-19 03:23:00,
2013-06-18 22:28:00,78.7,65.5,29.85,SE,131,0.0,0.0,64,0.00,,SKC,0.39,VWS V14.01,2013-06-19 03:28:00,
2013-06-18 22:33:00,78.7,65.5,29.85,SE,130,1.0,1.0,64,0.00,,SKC,0.39,VWS V14.01,2013-06-19 03:33:00,
2013-06-18 22:38:00,78.7,65.5,29.85,SE,131,0.0,0.0,64,0.00,,SKC,0.39,VWS V14.01,2013-06-19 03:38:00,
2013-06-18 22:43:00,78.5,65.3,29.85,SE,131,1.0,2.0,64,0.00,,SKC,0.39,VWS V14.01,2013-06-19 03:43:00,
2013-06-18 22:48:00,78.3,65.6,29.85,SE,130,0.0,2.0,65,0.00,,SKC,0.39,VWS V14.01,2013-06-19 03:48:00,
2013-06-18 22:53:00,78.1,65.4,29.85,SE,130,0.0,1.0,65,0.00,,SKC,0.39,VWS V14.01,2013-06-19 03:53:00,
2013-06-18 22:58:00,78.0,65.3,29.86,SE,131,0.0,0.0,65,0.00,,SKC,0.39,VWS V14.01,2013-06-19 03:58:00,
2013-06-18 23:01:00,77.9,65.6,29.86,SE,131,0.0,0.0,66,0.00,,SKC,0.39,VWS V14.01,2013-06-19 04:01:00,
2013-06-18 23:06:00,77.6,65.3,29.86,SE,131,0.0,0.0,66,0.00,,SKC,0.39,VWS V14.01,2013-06-19 04:06:00,
2013-06-18 23:11:00,77.4,65.2,29.86,SE,131,0.0,0.0,66,0.00,,SKC,0.39,VWS V14.01,2013-06-19 04:11:00,
2013-06-18 23:16:00,77.2,65.4,29.86,SE,131,0.0,0.0,67,0.00,,SKC,0.39,VWS V14.01,2013-06-19 04:16:00,
2013-06-18 23:21:00,77.1,65.3,29.86,SE,131,0.0,0.0,67,0.00,,SKC,0.39,VWS V14.01,2013-06-19 04:21:00,
2013-06-18 23:26:00,77.0,65.2,29.86,SE,130,0.0,0.0,67,0.00,,SKC,0.39,VWS V14.01,2013-06-19 04:26:00,
2013-06-18 23:31:00,76.9,65.5,29.86,SE,131,0.0,1.0,68,0.00,,SKC,0.39,VWS V14.01,2013-06-19 04:31:00,
2013-06-18 23:36:00,76.8,65.4,29.86,SE,131,0.0,0.0,68,0.00,,SKC,0.39,VWS V14.01,2013-06-19 04:36:00,
2013-06-18 23:41:00,76.7,65.3,29.86,SE,131,0.0,0.0,68,0.00,,SKC,0.39,VWS V14.01,2013-06-19 04:41:00,
2013-06-18 23:46:00,76.5,65.6,29.86,SE,131,0.0,0.0,69,0.00,,SKC,0.39,VWS V14.01,2013-06-19 04:46:00,
2013-06-18 23:51:00,76.3,65.4,29.86,SE,131,0.0,0.0,69,0.00,,SKC,0.39,VWS V14.01,2013-06-19 04:51:00,
2013-06-18 23:56:00,76.2,65.7,29.86,SE,130,0.0,0.0,70,0.00,,SKC,0.39,VWS V14.01,2013-06-19 04:56:00,